<?xml version="1.0" encoding="UTF-8" standalone="no" ?>
<gpx xmlns="http://www.topografix.com/GPX/1/1" xmlns:xsi="http://www.w3.org/2001/XMLSchema-instance" xsi:schemaLocation="http://www.topografix.com/GPX/1/1 http://www.topografix.com/GPX/1/1/gpx.xsd" version="1.1" creator="VisuGPX - https://www.visugpx.com">
  <metadata>
    <name>Rando des huitres</name>
    <desc><![CDATA[rando des huitres Etaules 15 août 2012]]></desc>
  </metadata>
  <trk>
    <name><![CDATA[Rando des huitres_1]]></name>
    <trkseg>
      <trkpt lat="45.72702" lon="-1.09799">
        <ele>17</ele>
        <time>2012-08-15T07:52:07Z</time>
      </trkpt>
      <trkpt lat="45.72705" lon="-1.09767">
        <ele>11</ele>
        <time>2012-08-15T07:52:41Z</time>
      </trkpt>
      <trkpt lat="45.7269" lon="-1.09737">
        <ele>13</ele>
        <time>2012-08-15T07:52:51Z</time>
      </trkpt>
      <trkpt lat="45.72677" lon="-1.0971">
        <ele>12</ele>
        <time>2012-08-15T07:53:00Z</time>
      </trkpt>
      <trkpt lat="45.72697" lon="-1.09691">
        <ele>12</ele>
        <time>2012-08-15T07:53:10Z</time>
      </trkpt>
      <trkpt lat="45.72719" lon="-1.09678">
        <ele>12</ele>
        <time>2012-08-15T07:53:15Z</time>
      </trkpt>
      <trkpt lat="45.7274" lon="-1.09664">
        <ele>14</ele>
        <time>2012-08-15T07:53:23Z</time>
      </trkpt>
      <trkpt lat="45.72757" lon="-1.09637">
        <ele>16</ele>
        <time>2012-08-15T07:53:33Z</time>
      </trkpt>
      <trkpt lat="45.7276" lon="-1.09602">
        <ele>14</ele>
        <time>2012-08-15T07:53:40Z</time>
      </trkpt>
      <trkpt lat="45.72782" lon="-1.09589">
        <ele>15</ele>
        <time>2012-08-15T07:53:46Z</time>
      </trkpt>
      <trkpt lat="45.72792" lon="-1.09559">
        <ele>14</ele>
        <time>2012-08-15T07:53:51Z</time>
      </trkpt>
      <trkpt lat="45.72795" lon="-1.09525">
        <ele>18</ele>
        <time>2012-08-15T07:53:58Z</time>
      </trkpt>
      <trkpt lat="45.72795" lon="-1.09492">
        <ele>19</ele>
        <time>2012-08-15T07:54:05Z</time>
      </trkpt>
      <trkpt lat="45.72798" lon="-1.09457">
        <ele>22</ele>
        <time>2012-08-15T07:54:12Z</time>
      </trkpt>
      <trkpt lat="45.7281" lon="-1.09427">
        <ele>18</ele>
        <time>2012-08-15T07:54:19Z</time>
      </trkpt>
      <trkpt lat="45.72811" lon="-1.09393">
        <ele>16</ele>
        <time>2012-08-15T07:54:25Z</time>
      </trkpt>
      <trkpt lat="45.72805" lon="-1.09356">
        <ele>13</ele>
        <time>2012-08-15T07:54:31Z</time>
      </trkpt>
      <trkpt lat="45.72798" lon="-1.09324">
        <ele>11</ele>
        <time>2012-08-15T07:54:36Z</time>
      </trkpt>
      <trkpt lat="45.72819" lon="-1.09309">
        <ele>10</ele>
        <time>2012-08-15T07:54:43Z</time>
      </trkpt>
      <trkpt lat="45.72845" lon="-1.09303">
        <ele>5</ele>
        <time>2012-08-15T07:54:49Z</time>
      </trkpt>
      <trkpt lat="45.72869" lon="-1.09292">
        <ele>5</ele>
        <time>2012-08-15T07:54:55Z</time>
      </trkpt>
      <trkpt lat="45.72891" lon="-1.09278">
        <ele>2</ele>
        <time>2012-08-15T07:55:01Z</time>
      </trkpt>
      <trkpt lat="45.72902" lon="-1.09248">
        <ele>4</ele>
        <time>2012-08-15T07:55:14Z</time>
      </trkpt>
      <trkpt lat="45.72922" lon="-1.09231">
        <ele>9</ele>
        <time>2012-08-15T07:55:23Z</time>
      </trkpt>
      <trkpt lat="45.72947" lon="-1.09225">
        <ele>10</ele>
        <time>2012-08-15T07:55:31Z</time>
      </trkpt>
      <trkpt lat="45.72968" lon="-1.09211">
        <ele>10</ele>
        <time>2012-08-15T07:55:38Z</time>
      </trkpt>
      <trkpt lat="45.72986" lon="-1.09184">
        <ele>11</ele>
        <time>2012-08-15T07:55:45Z</time>
      </trkpt>
      <trkpt lat="45.73001" lon="-1.09156">
        <ele>11</ele>
        <time>2012-08-15T07:55:53Z</time>
      </trkpt>
      <trkpt lat="45.73021" lon="-1.09135">
        <ele>12</ele>
        <time>2012-08-15T07:56:01Z</time>
      </trkpt>
      <trkpt lat="45.73042" lon="-1.09122">
        <ele>11</ele>
        <time>2012-08-15T07:56:08Z</time>
      </trkpt>
      <trkpt lat="45.73065" lon="-1.09111">
        <ele>15</ele>
        <time>2012-08-15T07:57:03Z</time>
      </trkpt>
      <trkpt lat="45.73088" lon="-1.09093">
        <ele>14</ele>
        <time>2012-08-15T07:57:11Z</time>
      </trkpt>
      <trkpt lat="45.7311" lon="-1.09077">
        <ele>14</ele>
        <time>2012-08-15T07:57:18Z</time>
      </trkpt>
      <trkpt lat="45.73129" lon="-1.09058">
        <ele>13</ele>
        <time>2012-08-15T07:57:24Z</time>
      </trkpt>
      <trkpt lat="45.73148" lon="-1.09038">
        <ele>14</ele>
        <time>2012-08-15T07:57:30Z</time>
      </trkpt>
      <trkpt lat="45.73168" lon="-1.09016">
        <ele>17</ele>
        <time>2012-08-15T07:57:37Z</time>
      </trkpt>
      <trkpt lat="45.73188" lon="-1.08999">
        <ele>16</ele>
        <time>2012-08-15T07:57:45Z</time>
      </trkpt>
      <trkpt lat="45.7321" lon="-1.09009">
        <ele>17</ele>
        <time>2012-08-15T07:57:52Z</time>
      </trkpt>
      <trkpt lat="45.73233" lon="-1.09026">
        <ele>17</ele>
        <time>2012-08-15T07:57:59Z</time>
      </trkpt>
      <trkpt lat="45.73249" lon="-1.09004">
        <ele>17</ele>
        <time>2012-08-15T07:58:05Z</time>
      </trkpt>
      <trkpt lat="45.73264" lon="-1.08974">
        <ele>16</ele>
        <time>2012-08-15T07:58:11Z</time>
      </trkpt>
      <trkpt lat="45.73281" lon="-1.08951">
        <ele>16</ele>
        <time>2012-08-15T07:58:17Z</time>
      </trkpt>
      <trkpt lat="45.733" lon="-1.08926">
        <ele>17</ele>
        <time>2012-08-15T07:58:23Z</time>
      </trkpt>
      <trkpt lat="45.73311" lon="-1.08898">
        <ele>18</ele>
        <time>2012-08-15T07:58:28Z</time>
      </trkpt>
      <trkpt lat="45.73324" lon="-1.08866">
        <ele>18</ele>
        <time>2012-08-15T07:58:34Z</time>
      </trkpt>
      <trkpt lat="45.73337" lon="-1.08835">
        <ele>23</ele>
        <time>2012-08-15T07:58:40Z</time>
      </trkpt>
      <trkpt lat="45.73351" lon="-1.08807">
        <ele>25</ele>
        <time>2012-08-15T07:58:45Z</time>
      </trkpt>
      <trkpt lat="45.73351" lon="-1.0877">
        <ele>22</ele>
        <time>2012-08-15T07:58:51Z</time>
      </trkpt>
      <trkpt lat="45.73334" lon="-1.08742">
        <ele>21</ele>
        <time>2012-08-15T07:58:57Z</time>
      </trkpt>
      <trkpt lat="45.7332" lon="-1.08711">
        <ele>19</ele>
        <time>2012-08-15T07:59:03Z</time>
      </trkpt>
      <trkpt lat="45.73309" lon="-1.0868">
        <ele>20</ele>
        <time>2012-08-15T07:59:09Z</time>
      </trkpt>
      <trkpt lat="45.733" lon="-1.08647">
        <ele>20</ele>
        <time>2012-08-15T07:59:15Z</time>
      </trkpt>
      <trkpt lat="45.73289" lon="-1.08613">
        <ele>19</ele>
        <time>2012-08-15T07:59:22Z</time>
      </trkpt>
      <trkpt lat="45.73279" lon="-1.08581">
        <ele>19</ele>
        <time>2012-08-15T07:59:28Z</time>
      </trkpt>
      <trkpt lat="45.73264" lon="-1.08552">
        <ele>18</ele>
        <time>2012-08-15T07:59:34Z</time>
      </trkpt>
      <trkpt lat="45.73251" lon="-1.08522">
        <ele>18</ele>
        <time>2012-08-15T07:59:40Z</time>
      </trkpt>
      <trkpt lat="45.73255" lon="-1.08486">
        <ele>18</ele>
        <time>2012-08-15T07:59:47Z</time>
      </trkpt>
      <trkpt lat="45.73261" lon="-1.08451">
        <ele>17</ele>
        <time>2012-08-15T07:59:55Z</time>
      </trkpt>
      <trkpt lat="45.73274" lon="-1.08423">
        <ele>17</ele>
        <time>2012-08-15T08:00:01Z</time>
      </trkpt>
      <trkpt lat="45.73291" lon="-1.08397">
        <ele>19</ele>
        <time>2012-08-15T08:00:07Z</time>
      </trkpt>
      <trkpt lat="45.73308" lon="-1.08369">
        <ele>25</ele>
        <time>2012-08-15T08:00:15Z</time>
      </trkpt>
      <trkpt lat="45.73322" lon="-1.08341">
        <ele>25</ele>
        <time>2012-08-15T08:00:22Z</time>
      </trkpt>
      <trkpt lat="45.73311" lon="-1.08311">
        <ele>24</ele>
        <time>2012-08-15T08:00:27Z</time>
      </trkpt>
      <trkpt lat="45.73299" lon="-1.08282">
        <ele>23</ele>
        <time>2012-08-15T08:00:31Z</time>
      </trkpt>
      <trkpt lat="45.73287" lon="-1.08252">
        <ele>24</ele>
        <time>2012-08-15T08:00:36Z</time>
      </trkpt>
      <trkpt lat="45.73276" lon="-1.0822">
        <ele>24</ele>
        <time>2012-08-15T08:00:42Z</time>
      </trkpt>
      <trkpt lat="45.73254" lon="-1.08227">
        <ele>24</ele>
        <time>2012-08-15T08:00:50Z</time>
      </trkpt>
      <trkpt lat="45.73246" lon="-1.08264">
        <ele>25</ele>
        <time>2012-08-15T08:00:58Z</time>
      </trkpt>
      <trkpt lat="45.7324" lon="-1.08297">
        <ele>23</ele>
        <time>2012-08-15T08:01:03Z</time>
      </trkpt>
      <trkpt lat="45.73235" lon="-1.08331">
        <ele>26</ele>
        <time>2012-08-15T08:01:09Z</time>
      </trkpt>
      <trkpt lat="45.73224" lon="-1.0836">
        <ele>28</ele>
        <time>2012-08-15T08:01:16Z</time>
      </trkpt>
      <trkpt lat="45.7322" lon="-1.08392">
        <ele>29</ele>
        <time>2012-08-15T08:01:27Z</time>
      </trkpt>
      <trkpt lat="45.73214" lon="-1.08427">
        <ele>29</ele>
        <time>2012-08-15T08:01:36Z</time>
      </trkpt>
      <trkpt lat="45.7319" lon="-1.08435">
        <ele>33</ele>
        <time>2012-08-15T08:01:48Z</time>
      </trkpt>
      <trkpt lat="45.73167" lon="-1.08436">
        <ele>26</ele>
        <time>2012-08-15T08:01:56Z</time>
      </trkpt>
      <trkpt lat="45.73144" lon="-1.08439">
        <ele>30</ele>
        <time>2012-08-15T08:02:03Z</time>
      </trkpt>
      <trkpt lat="45.7312" lon="-1.08446">
        <ele>35</ele>
        <time>2012-08-15T08:02:10Z</time>
      </trkpt>
      <trkpt lat="45.73097" lon="-1.08452">
        <ele>34</ele>
        <time>2012-08-15T08:02:17Z</time>
      </trkpt>
      <trkpt lat="45.73088" lon="-1.08482">
        <ele>29</ele>
        <time>2012-08-15T08:02:33Z</time>
      </trkpt>
      <trkpt lat="45.73065" lon="-1.0848">
        <ele>26</ele>
        <time>2012-08-15T08:03:05Z</time>
      </trkpt>
      <trkpt lat="45.73054" lon="-1.08451">
        <ele>22</ele>
        <time>2012-08-15T08:03:13Z</time>
      </trkpt>
      <trkpt lat="45.73047" lon="-1.08419">
        <ele>20</ele>
        <time>2012-08-15T08:03:23Z</time>
      </trkpt>
      <trkpt lat="45.73027" lon="-1.08401">
        <ele>22</ele>
        <time>2012-08-15T08:03:34Z</time>
      </trkpt>
      <trkpt lat="45.73004" lon="-1.08406">
        <ele>22</ele>
        <time>2012-08-15T08:03:48Z</time>
      </trkpt>
      <trkpt lat="45.72982" lon="-1.08394">
        <ele>21</ele>
        <time>2012-08-15T08:03:58Z</time>
      </trkpt>
      <trkpt lat="45.72991" lon="-1.08365">
        <ele>26</ele>
        <time>2012-08-15T08:04:09Z</time>
      </trkpt>
      <trkpt lat="45.73013" lon="-1.08351">
        <ele>22</ele>
        <time>2012-08-15T08:04:17Z</time>
      </trkpt>
      <trkpt lat="45.73035" lon="-1.08341">
        <ele>21</ele>
        <time>2012-08-15T08:04:23Z</time>
      </trkpt>
      <trkpt lat="45.73057" lon="-1.08328">
        <ele>19</ele>
        <time>2012-08-15T08:04:29Z</time>
      </trkpt>
      <trkpt lat="45.73078" lon="-1.08321">
        <ele>17</ele>
        <time>2012-08-15T08:04:37Z</time>
      </trkpt>
      <trkpt lat="45.73102" lon="-1.08315">
        <ele>15</ele>
        <time>2012-08-15T08:04:52Z</time>
      </trkpt>
      <trkpt lat="45.73117" lon="-1.0829">
        <ele>13</ele>
        <time>2012-08-15T08:05:03Z</time>
      </trkpt>
      <trkpt lat="45.73125" lon="-1.08257">
        <ele>19</ele>
        <time>2012-08-15T08:05:13Z</time>
      </trkpt>
      <trkpt lat="45.73115" lon="-1.08227">
        <ele>29</ele>
        <time>2012-08-15T08:05:27Z</time>
      </trkpt>
      <trkpt lat="45.73122" lon="-1.08196">
        <ele>23</ele>
        <time>2012-08-15T08:05:39Z</time>
      </trkpt>
      <trkpt lat="45.73147" lon="-1.082">
        <ele>23</ele>
        <time>2012-08-15T08:05:45Z</time>
      </trkpt>
      <trkpt lat="45.73172" lon="-1.08196">
        <ele>25</ele>
        <time>2012-08-15T08:05:52Z</time>
      </trkpt>
      <trkpt lat="45.73195" lon="-1.08178">
        <ele>21</ele>
        <time>2012-08-15T08:05:59Z</time>
      </trkpt>
      <trkpt lat="45.73213" lon="-1.08155">
        <ele>18</ele>
        <time>2012-08-15T08:06:06Z</time>
      </trkpt>
      <trkpt lat="45.73233" lon="-1.0814">
        <ele>21</ele>
        <time>2012-08-15T08:06:14Z</time>
      </trkpt>
      <trkpt lat="45.73258" lon="-1.08135">
        <ele>21</ele>
        <time>2012-08-15T08:06:23Z</time>
      </trkpt>
      <trkpt lat="45.73279" lon="-1.08146">
        <ele>24</ele>
        <time>2012-08-15T08:06:29Z</time>
      </trkpt>
      <trkpt lat="45.73301" lon="-1.08154">
        <ele>26</ele>
        <time>2012-08-15T08:06:36Z</time>
      </trkpt>
      <trkpt lat="45.73322" lon="-1.08166">
        <ele>25</ele>
        <time>2012-08-15T08:06:45Z</time>
      </trkpt>
      <trkpt lat="45.73345" lon="-1.08178">
        <ele>23</ele>
        <time>2012-08-15T08:06:54Z</time>
      </trkpt>
      <trkpt lat="45.73369" lon="-1.08192">
        <ele>22</ele>
        <time>2012-08-15T08:07:02Z</time>
      </trkpt>
      <trkpt lat="45.73392" lon="-1.08204">
        <ele>24</ele>
        <time>2012-08-15T08:07:10Z</time>
      </trkpt>
      <trkpt lat="45.73416" lon="-1.08215">
        <ele>24</ele>
        <time>2012-08-15T08:07:18Z</time>
      </trkpt>
      <trkpt lat="45.73436" lon="-1.08231">
        <ele>23</ele>
        <time>2012-08-15T08:07:26Z</time>
      </trkpt>
      <trkpt lat="45.73459" lon="-1.08247">
        <ele>24</ele>
        <time>2012-08-15T08:07:36Z</time>
      </trkpt>
      <trkpt lat="45.7348" lon="-1.08262">
        <ele>24</ele>
        <time>2012-08-15T08:07:43Z</time>
      </trkpt>
      <trkpt lat="45.73502" lon="-1.0828">
        <ele>26</ele>
        <time>2012-08-15T08:07:50Z</time>
      </trkpt>
      <trkpt lat="45.73522" lon="-1.08298">
        <ele>26</ele>
        <time>2012-08-15T08:07:57Z</time>
      </trkpt>
      <trkpt lat="45.73543" lon="-1.08315">
        <ele>25</ele>
        <time>2012-08-15T08:08:05Z</time>
      </trkpt>
      <trkpt lat="45.73564" lon="-1.08332">
        <ele>24</ele>
        <time>2012-08-15T08:08:14Z</time>
      </trkpt>
      <trkpt lat="45.73581" lon="-1.08354">
        <ele>24</ele>
        <time>2012-08-15T08:08:30Z</time>
      </trkpt>
      <trkpt lat="45.73597" lon="-1.08381">
        <ele>19</ele>
        <time>2012-08-15T08:08:38Z</time>
      </trkpt>
      <trkpt lat="45.73614" lon="-1.08405">
        <ele>20</ele>
        <time>2012-08-15T08:08:47Z</time>
      </trkpt>
      <trkpt lat="45.73635" lon="-1.08425">
        <ele>19</ele>
        <time>2012-08-15T08:08:57Z</time>
      </trkpt>
      <trkpt lat="45.73645" lon="-1.08459">
        <ele>19</ele>
        <time>2012-08-15T08:09:04Z</time>
      </trkpt>
      <trkpt lat="45.73652" lon="-1.08492">
        <ele>19</ele>
        <time>2012-08-15T08:09:10Z</time>
      </trkpt>
      <trkpt lat="45.73658" lon="-1.08524">
        <ele>18</ele>
        <time>2012-08-15T08:09:15Z</time>
      </trkpt>
      <trkpt lat="45.73666" lon="-1.08556">
        <ele>19</ele>
        <time>2012-08-15T08:09:20Z</time>
      </trkpt>
      <trkpt lat="45.73673" lon="-1.08594">
        <ele>19</ele>
        <time>2012-08-15T08:09:25Z</time>
      </trkpt>
      <trkpt lat="45.73683" lon="-1.08628">
        <ele>19</ele>
        <time>2012-08-15T08:09:30Z</time>
      </trkpt>
      <trkpt lat="45.73691" lon="-1.08663">
        <ele>18</ele>
        <time>2012-08-15T08:09:35Z</time>
      </trkpt>
      <trkpt lat="45.73683" lon="-1.08695">
        <ele>18</ele>
        <time>2012-08-15T08:09:42Z</time>
      </trkpt>
      <trkpt lat="45.73662" lon="-1.08716">
        <ele>18</ele>
        <time>2012-08-15T08:09:48Z</time>
      </trkpt>
      <trkpt lat="45.73643" lon="-1.08734">
        <ele>20</ele>
        <time>2012-08-15T08:09:54Z</time>
      </trkpt>
      <trkpt lat="45.7362" lon="-1.08746">
        <ele>21</ele>
        <time>2012-08-15T08:10:02Z</time>
      </trkpt>
      <trkpt lat="45.73597" lon="-1.08733">
        <ele>22</ele>
        <time>2012-08-15T08:10:12Z</time>
      </trkpt>
      <trkpt lat="45.73574" lon="-1.08727">
        <ele>25</ele>
        <time>2012-08-15T08:10:21Z</time>
      </trkpt>
      <trkpt lat="45.73554" lon="-1.08744">
        <ele>27</ele>
        <time>2012-08-15T08:10:31Z</time>
      </trkpt>
      <trkpt lat="45.73553" lon="-1.0878">
        <ele>25</ele>
        <time>2012-08-15T08:10:43Z</time>
      </trkpt>
      <trkpt lat="45.73549" lon="-1.08812">
        <ele>25</ele>
        <time>2012-08-15T08:10:51Z</time>
      </trkpt>
      <trkpt lat="45.73546" lon="-1.08847">
        <ele>24</ele>
        <time>2012-08-15T08:11:00Z</time>
      </trkpt>
      <trkpt lat="45.73543" lon="-1.08882">
        <ele>24</ele>
        <time>2012-08-15T08:11:08Z</time>
      </trkpt>
      <trkpt lat="45.7354" lon="-1.08915">
        <ele>23</ele>
        <time>2012-08-15T08:11:16Z</time>
      </trkpt>
      <trkpt lat="45.73553" lon="-1.08946">
        <ele>29</ele>
        <time>2012-08-15T08:11:24Z</time>
      </trkpt>
      <trkpt lat="45.73576" lon="-1.08957">
        <ele>24</ele>
        <time>2012-08-15T08:11:35Z</time>
      </trkpt>
      <trkpt lat="45.73599" lon="-1.08954">
        <ele>25</ele>
        <time>2012-08-15T08:11:48Z</time>
      </trkpt>
      <trkpt lat="45.73579" lon="-1.08969">
        <ele>26</ele>
        <time>2012-08-15T08:12:10Z</time>
      </trkpt>
      <trkpt lat="45.73558" lon="-1.08981">
        <ele>27</ele>
        <time>2012-08-15T08:12:25Z</time>
      </trkpt>
      <trkpt lat="45.73557" lon="-1.09013">
        <ele>24</ele>
        <time>2012-08-15T08:12:39Z</time>
      </trkpt>
      <trkpt lat="45.73539" lon="-1.09033">
        <ele>17</ele>
        <time>2012-08-15T08:13:08Z</time>
      </trkpt>
      <trkpt lat="45.73531" lon="-1.09068">
        <ele>13</ele>
        <time>2012-08-15T08:13:22Z</time>
      </trkpt>
      <trkpt lat="45.73524" lon="-1.09099">
        <ele>18</ele>
        <time>2012-08-15T08:13:29Z</time>
      </trkpt>
      <trkpt lat="45.73517" lon="-1.0913">
        <ele>16</ele>
        <time>2012-08-15T08:13:50Z</time>
      </trkpt>
      <trkpt lat="45.73517" lon="-1.09163">
        <ele>14</ele>
        <time>2012-08-15T08:13:58Z</time>
      </trkpt>
      <trkpt lat="45.73523" lon="-1.09195">
        <ele>20</ele>
        <time>2012-08-15T08:14:06Z</time>
      </trkpt>
      <trkpt lat="45.73526" lon="-1.0923">
        <ele>21</ele>
        <time>2012-08-15T08:14:16Z</time>
      </trkpt>
      <trkpt lat="45.73526" lon="-1.09265">
        <ele>22</ele>
        <time>2012-08-15T08:14:24Z</time>
      </trkpt>
      <trkpt lat="45.73529" lon="-1.09296">
        <ele>25</ele>
        <time>2012-08-15T08:14:33Z</time>
      </trkpt>
      <trkpt lat="45.73552" lon="-1.09295">
        <ele>23</ele>
        <time>2012-08-15T08:14:41Z</time>
      </trkpt>
      <trkpt lat="45.73576" lon="-1.09288">
        <ele>22</ele>
        <time>2012-08-15T08:14:47Z</time>
      </trkpt>
      <trkpt lat="45.73598" lon="-1.09283">
        <ele>21</ele>
        <time>2012-08-15T08:14:52Z</time>
      </trkpt>
      <trkpt lat="45.73621" lon="-1.09275">
        <ele>19</ele>
        <time>2012-08-15T08:14:57Z</time>
      </trkpt>
      <trkpt lat="45.73644" lon="-1.0926">
        <ele>19</ele>
        <time>2012-08-15T08:15:03Z</time>
      </trkpt>
      <trkpt lat="45.73662" lon="-1.09281">
        <ele>18</ele>
        <time>2012-08-15T08:15:11Z</time>
      </trkpt>
      <trkpt lat="45.73673" lon="-1.09311">
        <ele>19</ele>
        <time>2012-08-15T08:15:18Z</time>
      </trkpt>
      <trkpt lat="45.73685" lon="-1.09342">
        <ele>19</ele>
        <time>2012-08-15T08:15:29Z</time>
      </trkpt>
      <trkpt lat="45.73699" lon="-1.09372">
        <ele>19</ele>
        <time>2012-08-15T08:15:39Z</time>
      </trkpt>
      <trkpt lat="45.73713" lon="-1.09401">
        <ele>19</ele>
        <time>2012-08-15T08:15:47Z</time>
      </trkpt>
      <trkpt lat="45.73724" lon="-1.09432">
        <ele>20</ele>
        <time>2012-08-15T08:15:54Z</time>
      </trkpt>
      <trkpt lat="45.73735" lon="-1.09462">
        <ele>20</ele>
        <time>2012-08-15T08:16:00Z</time>
      </trkpt>
      <trkpt lat="45.73747" lon="-1.09491">
        <ele>20</ele>
        <time>2012-08-15T08:16:06Z</time>
      </trkpt>
      <trkpt lat="45.73758" lon="-1.09525">
        <ele>19</ele>
        <time>2012-08-15T08:16:12Z</time>
      </trkpt>
      <trkpt lat="45.73765" lon="-1.0956">
        <ele>20</ele>
        <time>2012-08-15T08:16:18Z</time>
      </trkpt>
      <trkpt lat="45.73776" lon="-1.09594">
        <ele>19</ele>
        <time>2012-08-15T08:16:25Z</time>
      </trkpt>
      <trkpt lat="45.73785" lon="-1.09627">
        <ele>19</ele>
        <time>2012-08-15T08:16:31Z</time>
      </trkpt>
      <trkpt lat="45.73796" lon="-1.09655">
        <ele>19</ele>
        <time>2012-08-15T08:16:37Z</time>
      </trkpt>
      <trkpt lat="45.73808" lon="-1.09688">
        <ele>20</ele>
        <time>2012-08-15T08:16:44Z</time>
      </trkpt>
      <trkpt lat="45.7382" lon="-1.09715">
        <ele>21</ele>
        <time>2012-08-15T08:16:51Z</time>
      </trkpt>
      <trkpt lat="45.73832" lon="-1.09742">
        <ele>23</ele>
        <time>2012-08-15T08:16:58Z</time>
      </trkpt>
      <trkpt lat="45.73844" lon="-1.0977">
        <ele>25</ele>
        <time>2012-08-15T08:17:06Z</time>
      </trkpt>
      <trkpt lat="45.73856" lon="-1.09799">
        <ele>24</ele>
        <time>2012-08-15T08:17:13Z</time>
      </trkpt>
      <trkpt lat="45.73867" lon="-1.09831">
        <ele>23</ele>
        <time>2012-08-15T08:17:20Z</time>
      </trkpt>
      <trkpt lat="45.73875" lon="-1.09862">
        <ele>24</ele>
        <time>2012-08-15T08:17:26Z</time>
      </trkpt>
      <trkpt lat="45.73882" lon="-1.09896">
        <ele>24</ele>
        <time>2012-08-15T08:17:34Z</time>
      </trkpt>
      <trkpt lat="45.7389" lon="-1.09928">
        <ele>24</ele>
        <time>2012-08-15T08:17:41Z</time>
      </trkpt>
      <trkpt lat="45.73901" lon="-1.09962">
        <ele>24</ele>
        <time>2012-08-15T08:17:47Z</time>
      </trkpt>
      <trkpt lat="45.73911" lon="-1.09992">
        <ele>23</ele>
        <time>2012-08-15T08:17:53Z</time>
      </trkpt>
      <trkpt lat="45.73924" lon="-1.10019">
        <ele>22</ele>
        <time>2012-08-15T08:17:59Z</time>
      </trkpt>
      <trkpt lat="45.7394" lon="-1.10044">
        <ele>22</ele>
        <time>2012-08-15T08:18:06Z</time>
      </trkpt>
      <trkpt lat="45.73954" lon="-1.10072">
        <ele>22</ele>
        <time>2012-08-15T08:18:14Z</time>
      </trkpt>
      <trkpt lat="45.73972" lon="-1.10092">
        <ele>21</ele>
        <time>2012-08-15T08:18:24Z</time>
      </trkpt>
      <trkpt lat="45.73986" lon="-1.1012">
        <ele>22</ele>
        <time>2012-08-15T08:18:32Z</time>
      </trkpt>
      <trkpt lat="45.73996" lon="-1.1015">
        <ele>22</ele>
        <time>2012-08-15T08:18:42Z</time>
      </trkpt>
      <trkpt lat="45.7402" lon="-1.10151">
        <ele>19</ele>
        <time>2012-08-15T08:18:55Z</time>
      </trkpt>
      <trkpt lat="45.74043" lon="-1.10131">
        <ele>15</ele>
        <time>2012-08-15T08:19:00Z</time>
      </trkpt>
      <trkpt lat="45.74066" lon="-1.10111">
        <ele>12</ele>
        <time>2012-08-15T08:19:04Z</time>
      </trkpt>
      <trkpt lat="45.74089" lon="-1.1009">
        <ele>10</ele>
        <time>2012-08-15T08:19:08Z</time>
      </trkpt>
      <trkpt lat="45.74108" lon="-1.10073">
        <ele>9</ele>
        <time>2012-08-15T08:19:11Z</time>
      </trkpt>
      <trkpt lat="45.74131" lon="-1.1005">
        <ele>7</ele>
        <time>2012-08-15T08:19:15Z</time>
      </trkpt>
      <trkpt lat="45.74151" lon="-1.10028">
        <ele>8</ele>
        <time>2012-08-15T08:19:21Z</time>
      </trkpt>
      <trkpt lat="45.74137" lon="-1.10002">
        <ele>10</ele>
        <time>2012-08-15T08:19:28Z</time>
      </trkpt>
      <trkpt lat="45.74124" lon="-1.09975">
        <ele>11</ele>
        <time>2012-08-15T08:19:34Z</time>
      </trkpt>
      <trkpt lat="45.74112" lon="-1.09943">
        <ele>13</ele>
        <time>2012-08-15T08:19:42Z</time>
      </trkpt>
      <trkpt lat="45.74102" lon="-1.09909">
        <ele>14</ele>
        <time>2012-08-15T08:19:50Z</time>
      </trkpt>
      <trkpt lat="45.7409" lon="-1.09879">
        <ele>14</ele>
        <time>2012-08-15T08:19:56Z</time>
      </trkpt>
      <trkpt lat="45.74076" lon="-1.09848">
        <ele>14</ele>
        <time>2012-08-15T08:20:02Z</time>
      </trkpt>
      <trkpt lat="45.74064" lon="-1.09815">
        <ele>13</ele>
        <time>2012-08-15T08:20:08Z</time>
      </trkpt>
      <trkpt lat="45.74052" lon="-1.09786">
        <ele>14</ele>
        <time>2012-08-15T08:20:13Z</time>
      </trkpt>
      <trkpt lat="45.74041" lon="-1.09755">
        <ele>12</ele>
        <time>2012-08-15T08:20:18Z</time>
      </trkpt>
      <trkpt lat="45.74029" lon="-1.09725">
        <ele>12</ele>
        <time>2012-08-15T08:20:23Z</time>
      </trkpt>
      <trkpt lat="45.74016" lon="-1.09692">
        <ele>12</ele>
        <time>2012-08-15T08:20:28Z</time>
      </trkpt>
      <trkpt lat="45.74004" lon="-1.09658">
        <ele>11</ele>
        <time>2012-08-15T08:20:33Z</time>
      </trkpt>
      <trkpt lat="45.7399" lon="-1.09627">
        <ele>12</ele>
        <time>2012-08-15T08:20:38Z</time>
      </trkpt>
      <trkpt lat="45.73978" lon="-1.09594">
        <ele>12</ele>
        <time>2012-08-15T08:20:43Z</time>
      </trkpt>
      <trkpt lat="45.73966" lon="-1.09565">
        <ele>11</ele>
        <time>2012-08-15T08:20:47Z</time>
      </trkpt>
      <trkpt lat="45.73953" lon="-1.09531">
        <ele>12</ele>
        <time>2012-08-15T08:20:52Z</time>
      </trkpt>
      <trkpt lat="45.73944" lon="-1.09501">
        <ele>12</ele>
        <time>2012-08-15T08:20:56Z</time>
      </trkpt>
      <trkpt lat="45.7393" lon="-1.09472">
        <ele>12</ele>
        <time>2012-08-15T08:21:00Z</time>
      </trkpt>
      <trkpt lat="45.73917" lon="-1.09438">
        <ele>11</ele>
        <time>2012-08-15T08:21:05Z</time>
      </trkpt>
      <trkpt lat="45.73917" lon="-1.09406">
        <ele>11</ele>
        <time>2012-08-15T08:21:10Z</time>
      </trkpt>
      <trkpt lat="45.73941" lon="-1.09385">
        <ele>8</ele>
        <time>2012-08-15T08:21:15Z</time>
      </trkpt>
      <trkpt lat="45.73961" lon="-1.09369">
        <ele>8</ele>
        <time>2012-08-15T08:21:19Z</time>
      </trkpt>
      <trkpt lat="45.73983" lon="-1.0935">
        <ele>6</ele>
        <time>2012-08-15T08:21:23Z</time>
      </trkpt>
      <trkpt lat="45.74003" lon="-1.09332">
        <ele>6</ele>
        <time>2012-08-15T08:21:27Z</time>
      </trkpt>
      <trkpt lat="45.74023" lon="-1.09314">
        <ele>5</ele>
        <time>2012-08-15T08:21:31Z</time>
      </trkpt>
      <trkpt lat="45.74045" lon="-1.09296">
        <ele>5</ele>
        <time>2012-08-15T08:21:35Z</time>
      </trkpt>
      <trkpt lat="45.74067" lon="-1.09277">
        <ele>5</ele>
        <time>2012-08-15T08:21:39Z</time>
      </trkpt>
      <trkpt lat="45.74088" lon="-1.0926">
        <ele>5</ele>
        <time>2012-08-15T08:21:43Z</time>
      </trkpt>
      <trkpt lat="45.74109" lon="-1.09241">
        <ele>5</ele>
        <time>2012-08-15T08:21:47Z</time>
      </trkpt>
      <trkpt lat="45.74124" lon="-1.09216">
        <ele>4</ele>
        <time>2012-08-15T08:21:51Z</time>
      </trkpt>
      <trkpt lat="45.74142" lon="-1.09192">
        <ele>4</ele>
        <time>2012-08-15T08:21:56Z</time>
      </trkpt>
      <trkpt lat="45.74168" lon="-1.09191">
        <ele>3</ele>
        <time>2012-08-15T08:22:01Z</time>
      </trkpt>
      <trkpt lat="45.7419" lon="-1.09182">
        <ele>3</ele>
        <time>2012-08-15T08:22:05Z</time>
      </trkpt>
      <trkpt lat="45.74213" lon="-1.0917">
        <ele>3</ele>
        <time>2012-08-15T08:22:10Z</time>
      </trkpt>
      <trkpt lat="45.74238" lon="-1.09169">
        <ele>4</ele>
        <time>2012-08-15T08:22:17Z</time>
      </trkpt>
      <trkpt lat="45.74244" lon="-1.09204">
        <ele>5</ele>
        <time>2012-08-15T08:22:24Z</time>
      </trkpt>
      <trkpt lat="45.74228" lon="-1.09232">
        <ele>6</ele>
        <time>2012-08-15T08:22:30Z</time>
      </trkpt>
      <trkpt lat="45.74206" lon="-1.0925">
        <ele>7</ele>
        <time>2012-08-15T08:22:36Z</time>
      </trkpt>
      <trkpt lat="45.74189" lon="-1.09273">
        <ele>7</ele>
        <time>2012-08-15T08:22:42Z</time>
      </trkpt>
      <trkpt lat="45.74198" lon="-1.09305">
        <ele>9</ele>
        <time>2012-08-15T08:22:49Z</time>
      </trkpt>
      <trkpt lat="45.7421" lon="-1.09335">
        <ele>10</ele>
        <time>2012-08-15T08:22:55Z</time>
      </trkpt>
      <trkpt lat="45.74222" lon="-1.09364">
        <ele>10</ele>
        <time>2012-08-15T08:23:02Z</time>
      </trkpt>
      <trkpt lat="45.74246" lon="-1.0936">
        <ele>9</ele>
        <time>2012-08-15T08:23:14Z</time>
      </trkpt>
      <trkpt lat="45.7426" lon="-1.0933">
        <ele>7</ele>
        <time>2012-08-15T08:23:21Z</time>
      </trkpt>
      <trkpt lat="45.74275" lon="-1.09299">
        <ele>6</ele>
        <time>2012-08-15T08:23:27Z</time>
      </trkpt>
      <trkpt lat="45.74292" lon="-1.09269">
        <ele>4</ele>
        <time>2012-08-15T08:23:33Z</time>
      </trkpt>
      <trkpt lat="45.7431" lon="-1.09243">
        <ele>6</ele>
        <time>2012-08-15T08:23:39Z</time>
      </trkpt>
      <trkpt lat="45.74331" lon="-1.09227">
        <ele>6</ele>
        <time>2012-08-15T08:23:44Z</time>
      </trkpt>
      <trkpt lat="45.74352" lon="-1.09212">
        <ele>6</ele>
        <time>2012-08-15T08:23:49Z</time>
      </trkpt>
      <trkpt lat="45.74374" lon="-1.09202">
        <ele>7</ele>
        <time>2012-08-15T08:23:54Z</time>
      </trkpt>
      <trkpt lat="45.74399" lon="-1.09193">
        <ele>6</ele>
        <time>2012-08-15T08:24:00Z</time>
      </trkpt>
      <trkpt lat="45.7442" lon="-1.09178">
        <ele>8</ele>
        <time>2012-08-15T08:24:05Z</time>
      </trkpt>
      <trkpt lat="45.74441" lon="-1.09162">
        <ele>6</ele>
        <time>2012-08-15T08:24:10Z</time>
      </trkpt>
      <trkpt lat="45.74463" lon="-1.09149">
        <ele>6</ele>
        <time>2012-08-15T08:24:15Z</time>
      </trkpt>
      <trkpt lat="45.74487" lon="-1.09145">
        <ele>4</ele>
        <time>2012-08-15T08:24:20Z</time>
      </trkpt>
      <trkpt lat="45.74514" lon="-1.09148">
        <ele>2</ele>
        <time>2012-08-15T08:24:26Z</time>
      </trkpt>
      <trkpt lat="45.74538" lon="-1.0915">
        <ele>1</ele>
        <time>2012-08-15T08:24:32Z</time>
      </trkpt>
      <trkpt lat="45.74552" lon="-1.09177">
        <ele>2</ele>
        <time>2012-08-15T08:24:38Z</time>
      </trkpt>
      <trkpt lat="45.74559" lon="-1.09209">
        <ele>4</ele>
        <time>2012-08-15T08:24:45Z</time>
      </trkpt>
      <trkpt lat="45.74566" lon="-1.09239">
        <ele>5</ele>
        <time>2012-08-15T08:24:58Z</time>
      </trkpt>
      <trkpt lat="45.74573" lon="-1.09273">
        <ele>5</ele>
        <time>2012-08-15T08:28:38Z</time>
      </trkpt>
      <trkpt lat="45.74595" lon="-1.09282">
        <ele>5</ele>
        <time>2012-08-15T08:28:46Z</time>
      </trkpt>
      <trkpt lat="45.74591" lon="-1.09314">
        <ele>6</ele>
        <time>2012-08-15T08:28:54Z</time>
      </trkpt>
      <trkpt lat="45.74593" lon="-1.09348">
        <ele>6</ele>
        <time>2012-08-15T08:29:01Z</time>
      </trkpt>
      <trkpt lat="45.74585" lon="-1.09381">
        <ele>7</ele>
        <time>2012-08-15T08:29:08Z</time>
      </trkpt>
      <trkpt lat="45.74575" lon="-1.09413">
        <ele>7</ele>
        <time>2012-08-15T08:29:15Z</time>
      </trkpt>
      <trkpt lat="45.74561" lon="-1.0944">
        <ele>7</ele>
        <time>2012-08-15T08:29:21Z</time>
      </trkpt>
      <trkpt lat="45.74546" lon="-1.09465">
        <ele>6</ele>
        <time>2012-08-15T08:29:27Z</time>
      </trkpt>
      <trkpt lat="45.7453" lon="-1.09493">
        <ele>5</ele>
        <time>2012-08-15T08:29:34Z</time>
      </trkpt>
      <trkpt lat="45.74514" lon="-1.09516">
        <ele>5</ele>
        <time>2012-08-15T08:29:41Z</time>
      </trkpt>
      <trkpt lat="45.74504" lon="-1.09549">
        <ele>5</ele>
        <time>2012-08-15T08:29:48Z</time>
      </trkpt>
      <trkpt lat="45.7449" lon="-1.09576">
        <ele>6</ele>
        <time>2012-08-15T08:29:54Z</time>
      </trkpt>
      <trkpt lat="45.74476" lon="-1.09607">
        <ele>6</ele>
        <time>2012-08-15T08:30:01Z</time>
      </trkpt>
      <trkpt lat="45.74463" lon="-1.09636">
        <ele>7</ele>
        <time>2012-08-15T08:30:09Z</time>
      </trkpt>
      <trkpt lat="45.74447" lon="-1.09659">
        <ele>8</ele>
        <time>2012-08-15T08:30:17Z</time>
      </trkpt>
      <trkpt lat="45.74429" lon="-1.09683">
        <ele>9</ele>
        <time>2012-08-15T08:30:25Z</time>
      </trkpt>
      <trkpt lat="45.74412" lon="-1.09705">
        <ele>8</ele>
        <time>2012-08-15T08:30:33Z</time>
      </trkpt>
      <trkpt lat="45.74394" lon="-1.09728">
        <ele>9</ele>
        <time>2012-08-15T08:30:41Z</time>
      </trkpt>
      <trkpt lat="45.74377" lon="-1.0975">
        <ele>8</ele>
        <time>2012-08-15T08:30:48Z</time>
      </trkpt>
      <trkpt lat="45.74377" lon="-1.09783">
        <ele>9</ele>
        <time>2012-08-15T08:30:57Z</time>
      </trkpt>
      <trkpt lat="45.74389" lon="-1.09816">
        <ele>11</ele>
        <time>2012-08-15T08:31:04Z</time>
      </trkpt>
      <trkpt lat="45.74399" lon="-1.09847">
        <ele>12</ele>
        <time>2012-08-15T08:31:10Z</time>
      </trkpt>
      <trkpt lat="45.74408" lon="-1.09878">
        <ele>12</ele>
        <time>2012-08-15T08:31:16Z</time>
      </trkpt>
      <trkpt lat="45.74418" lon="-1.09908">
        <ele>12</ele>
        <time>2012-08-15T08:31:23Z</time>
      </trkpt>
      <trkpt lat="45.74429" lon="-1.09938">
        <ele>13</ele>
        <time>2012-08-15T08:31:30Z</time>
      </trkpt>
      <trkpt lat="45.74438" lon="-1.09967">
        <ele>13</ele>
        <time>2012-08-15T08:31:37Z</time>
      </trkpt>
      <trkpt lat="45.74449" lon="-1.09999">
        <ele>14</ele>
        <time>2012-08-15T08:31:45Z</time>
      </trkpt>
      <trkpt lat="45.74458" lon="-1.10028">
        <ele>14</ele>
        <time>2012-08-15T08:31:52Z</time>
      </trkpt>
      <trkpt lat="45.74482" lon="-1.10038">
        <ele>12</ele>
        <time>2012-08-15T08:32:01Z</time>
      </trkpt>
      <trkpt lat="45.74502" lon="-1.10015">
        <ele>12</ele>
        <time>2012-08-15T08:32:07Z</time>
      </trkpt>
      <trkpt lat="45.74522" lon="-1.09996">
        <ele>11</ele>
        <time>2012-08-15T08:32:13Z</time>
      </trkpt>
      <trkpt lat="45.74543" lon="-1.09974">
        <ele>10</ele>
        <time>2012-08-15T08:32:20Z</time>
      </trkpt>
      <trkpt lat="45.74562" lon="-1.09954">
        <ele>9</ele>
        <time>2012-08-15T08:32:27Z</time>
      </trkpt>
      <trkpt lat="45.74582" lon="-1.09934">
        <ele>8</ele>
        <time>2012-08-15T08:32:34Z</time>
      </trkpt>
      <trkpt lat="45.74603" lon="-1.09912">
        <ele>9</ele>
        <time>2012-08-15T08:32:41Z</time>
      </trkpt>
      <trkpt lat="45.74622" lon="-1.09893">
        <ele>9</ele>
        <time>2012-08-15T08:32:47Z</time>
      </trkpt>
      <trkpt lat="45.74643" lon="-1.09872">
        <ele>9</ele>
        <time>2012-08-15T08:32:54Z</time>
      </trkpt>
      <trkpt lat="45.74665" lon="-1.09851">
        <ele>10</ele>
        <time>2012-08-15T08:33:01Z</time>
      </trkpt>
      <trkpt lat="45.74685" lon="-1.09831">
        <ele>9</ele>
        <time>2012-08-15T08:33:07Z</time>
      </trkpt>
      <trkpt lat="45.74707" lon="-1.09813">
        <ele>8</ele>
        <time>2012-08-15T08:33:12Z</time>
      </trkpt>
      <trkpt lat="45.74731" lon="-1.09792">
        <ele>9</ele>
        <time>2012-08-15T08:33:17Z</time>
      </trkpt>
      <trkpt lat="45.74755" lon="-1.09773">
        <ele>9</ele>
        <time>2012-08-15T08:33:22Z</time>
      </trkpt>
      <trkpt lat="45.74778" lon="-1.09751">
        <ele>8</ele>
        <time>2012-08-15T08:33:27Z</time>
      </trkpt>
      <trkpt lat="45.74799" lon="-1.09734">
        <ele>7</ele>
        <time>2012-08-15T08:33:31Z</time>
      </trkpt>
      <trkpt lat="45.74819" lon="-1.09715">
        <ele>7</ele>
        <time>2012-08-15T08:33:35Z</time>
      </trkpt>
      <trkpt lat="45.74841" lon="-1.09698">
        <ele>7</ele>
        <time>2012-08-15T08:33:39Z</time>
      </trkpt>
      <trkpt lat="45.74862" lon="-1.09679">
        <ele>6</ele>
        <time>2012-08-15T08:33:43Z</time>
      </trkpt>
      <trkpt lat="45.74885" lon="-1.0966">
        <ele>5</ele>
        <time>2012-08-15T08:33:47Z</time>
      </trkpt>
      <trkpt lat="45.74906" lon="-1.09643">
        <ele>5</ele>
        <time>2012-08-15T08:33:51Z</time>
      </trkpt>
      <trkpt lat="45.7491" lon="-1.0961">
        <ele>3</ele>
        <time>2012-08-15T08:33:56Z</time>
      </trkpt>
      <trkpt lat="45.749" lon="-1.09574">
        <ele>3</ele>
        <time>2012-08-15T08:34:01Z</time>
      </trkpt>
      <trkpt lat="45.74888" lon="-1.09539">
        <ele>3</ele>
        <time>2012-08-15T08:34:06Z</time>
      </trkpt>
      <trkpt lat="45.74876" lon="-1.09504">
        <ele>4</ele>
        <time>2012-08-15T08:34:11Z</time>
      </trkpt>
      <trkpt lat="45.74862" lon="-1.09477">
        <ele>3</ele>
        <time>2012-08-15T08:34:15Z</time>
      </trkpt>
      <trkpt lat="45.74846" lon="-1.09449">
        <ele>2</ele>
        <time>2012-08-15T08:34:20Z</time>
      </trkpt>
      <trkpt lat="45.74837" lon="-1.09418">
        <ele>2</ele>
        <time>2012-08-15T08:34:25Z</time>
      </trkpt>
      <trkpt lat="45.74819" lon="-1.09393">
        <ele>3</ele>
        <time>2012-08-15T08:34:32Z</time>
      </trkpt>
      <trkpt lat="45.74836" lon="-1.09369">
        <ele>4</ele>
        <time>2012-08-15T08:34:41Z</time>
      </trkpt>
      <trkpt lat="45.7486" lon="-1.09353">
        <ele>4</ele>
        <time>2012-08-15T08:34:48Z</time>
      </trkpt>
      <trkpt lat="45.74883" lon="-1.09337">
        <ele>5</ele>
        <time>2012-08-15T08:34:55Z</time>
      </trkpt>
      <trkpt lat="45.74904" lon="-1.09321">
        <ele>5</ele>
        <time>2012-08-15T08:35:02Z</time>
      </trkpt>
      <trkpt lat="45.74903" lon="-1.09287">
        <ele>5</ele>
        <time>2012-08-15T08:35:11Z</time>
      </trkpt>
      <trkpt lat="45.74886" lon="-1.09259">
        <ele>4</ele>
        <time>2012-08-15T08:35:17Z</time>
      </trkpt>
      <trkpt lat="45.74869" lon="-1.09231">
        <ele>3</ele>
        <time>2012-08-15T08:35:23Z</time>
      </trkpt>
      <trkpt lat="45.74846" lon="-1.09213">
        <ele>4</ele>
        <time>2012-08-15T08:35:29Z</time>
      </trkpt>
      <trkpt lat="45.74826" lon="-1.09192">
        <ele>4</ele>
        <time>2012-08-15T08:35:36Z</time>
      </trkpt>
      <trkpt lat="45.74826" lon="-1.09157">
        <ele>4</ele>
        <time>2012-08-15T08:35:46Z</time>
      </trkpt>
      <trkpt lat="45.74835" lon="-1.09127">
        <ele>4</ele>
        <time>2012-08-15T08:35:53Z</time>
      </trkpt>
      <trkpt lat="45.7482" lon="-1.09102">
        <ele>3</ele>
        <time>2012-08-15T08:35:59Z</time>
      </trkpt>
      <trkpt lat="45.74803" lon="-1.09076">
        <ele>4</ele>
        <time>2012-08-15T08:36:05Z</time>
      </trkpt>
      <trkpt lat="45.74786" lon="-1.09048">
        <ele>4</ele>
        <time>2012-08-15T08:36:11Z</time>
      </trkpt>
      <trkpt lat="45.7477" lon="-1.0902">
        <ele>4</ele>
        <time>2012-08-15T08:36:17Z</time>
      </trkpt>
      <trkpt lat="45.74752" lon="-1.09">
        <ele>4</ele>
        <time>2012-08-15T08:36:22Z</time>
      </trkpt>
      <trkpt lat="45.74732" lon="-1.08976">
        <ele>5</ele>
        <time>2012-08-15T08:36:28Z</time>
      </trkpt>
      <trkpt lat="45.74714" lon="-1.08949">
        <ele>5</ele>
        <time>2012-08-15T08:36:34Z</time>
      </trkpt>
      <trkpt lat="45.74701" lon="-1.08919">
        <ele>5</ele>
        <time>2012-08-15T08:36:40Z</time>
      </trkpt>
      <trkpt lat="45.74691" lon="-1.08888">
        <ele>4</ele>
        <time>2012-08-15T08:36:46Z</time>
      </trkpt>
      <trkpt lat="45.74694" lon="-1.08851">
        <ele>4</ele>
        <time>2012-08-15T08:36:52Z</time>
      </trkpt>
      <trkpt lat="45.74691" lon="-1.08814">
        <ele>4</ele>
        <time>2012-08-15T08:36:58Z</time>
      </trkpt>
      <trkpt lat="45.74682" lon="-1.08779">
        <ele>4</ele>
        <time>2012-08-15T08:37:04Z</time>
      </trkpt>
      <trkpt lat="45.74672" lon="-1.08746">
        <ele>3</ele>
        <time>2012-08-15T08:37:11Z</time>
      </trkpt>
      <trkpt lat="45.74675" lon="-1.08714">
        <ele>3</ele>
        <time>2012-08-15T08:37:24Z</time>
      </trkpt>
      <trkpt lat="45.74697" lon="-1.08706">
        <ele>5</ele>
        <time>2012-08-15T08:37:33Z</time>
      </trkpt>
      <trkpt lat="45.74721" lon="-1.08698">
        <ele>5</ele>
        <time>2012-08-15T08:37:43Z</time>
      </trkpt>
      <trkpt lat="45.74746" lon="-1.08693">
        <ele>6</ele>
        <time>2012-08-15T08:37:52Z</time>
      </trkpt>
      <trkpt lat="45.74772" lon="-1.08685">
        <ele>7</ele>
        <time>2012-08-15T08:37:59Z</time>
      </trkpt>
      <trkpt lat="45.74796" lon="-1.08678">
        <ele>8</ele>
        <time>2012-08-15T08:38:04Z</time>
      </trkpt>
      <trkpt lat="45.74819" lon="-1.0867">
        <ele>7</ele>
        <time>2012-08-15T08:38:09Z</time>
      </trkpt>
      <trkpt lat="45.74845" lon="-1.08661">
        <ele>8</ele>
        <time>2012-08-15T08:38:15Z</time>
      </trkpt>
      <trkpt lat="45.74867" lon="-1.08653">
        <ele>8</ele>
        <time>2012-08-15T08:38:20Z</time>
      </trkpt>
      <trkpt lat="45.74891" lon="-1.08646">
        <ele>7</ele>
        <time>2012-08-15T08:38:25Z</time>
      </trkpt>
      <trkpt lat="45.74916" lon="-1.08638">
        <ele>7</ele>
        <time>2012-08-15T08:38:30Z</time>
      </trkpt>
      <trkpt lat="45.7494" lon="-1.08633">
        <ele>7</ele>
        <time>2012-08-15T08:38:35Z</time>
      </trkpt>
      <trkpt lat="45.74962" lon="-1.08625">
        <ele>7</ele>
        <time>2012-08-15T08:38:40Z</time>
      </trkpt>
      <trkpt lat="45.74987" lon="-1.08613">
        <ele>6</ele>
        <time>2012-08-15T08:38:46Z</time>
      </trkpt>
      <trkpt lat="45.7501" lon="-1.08606">
        <ele>5</ele>
        <time>2012-08-15T08:38:51Z</time>
      </trkpt>
      <trkpt lat="45.75034" lon="-1.08599">
        <ele>6</ele>
        <time>2012-08-15T08:38:56Z</time>
      </trkpt>
      <trkpt lat="45.75057" lon="-1.08591">
        <ele>6</ele>
        <time>2012-08-15T08:39:01Z</time>
      </trkpt>
      <trkpt lat="45.7508" lon="-1.08584">
        <ele>5</ele>
        <time>2012-08-15T08:39:06Z</time>
      </trkpt>
      <trkpt lat="45.75106" lon="-1.08575">
        <ele>5</ele>
        <time>2012-08-15T08:39:12Z</time>
      </trkpt>
      <trkpt lat="45.75128" lon="-1.08568">
        <ele>4</ele>
        <time>2012-08-15T08:39:17Z</time>
      </trkpt>
      <trkpt lat="45.75154" lon="-1.0856">
        <ele>5</ele>
        <time>2012-08-15T08:39:23Z</time>
      </trkpt>
      <trkpt lat="45.75179" lon="-1.08553">
        <ele>5</ele>
        <time>2012-08-15T08:39:29Z</time>
      </trkpt>
      <trkpt lat="45.75204" lon="-1.08546">
        <ele>5</ele>
        <time>2012-08-15T08:39:35Z</time>
      </trkpt>
      <trkpt lat="45.75229" lon="-1.08535">
        <ele>5</ele>
        <time>2012-08-15T08:39:41Z</time>
      </trkpt>
      <trkpt lat="45.75255" lon="-1.08528">
        <ele>5</ele>
        <time>2012-08-15T08:39:47Z</time>
      </trkpt>
      <trkpt lat="45.7528" lon="-1.08518">
        <ele>5</ele>
        <time>2012-08-15T08:39:53Z</time>
      </trkpt>
      <trkpt lat="45.75287" lon="-1.08488">
        <ele>6</ele>
        <time>2012-08-15T08:39:58Z</time>
      </trkpt>
      <trkpt lat="45.75292" lon="-1.08456">
        <ele>4</ele>
        <time>2012-08-15T08:40:03Z</time>
      </trkpt>
      <trkpt lat="45.75297" lon="-1.08424">
        <ele>4</ele>
        <time>2012-08-15T08:40:08Z</time>
      </trkpt>
      <trkpt lat="45.75301" lon="-1.08388">
        <ele>4</ele>
        <time>2012-08-15T08:40:14Z</time>
      </trkpt>
      <trkpt lat="45.75301" lon="-1.0835">
        <ele>4</ele>
        <time>2012-08-15T08:40:20Z</time>
      </trkpt>
      <trkpt lat="45.75289" lon="-1.08318">
        <ele>3</ele>
        <time>2012-08-15T08:40:26Z</time>
      </trkpt>
      <trkpt lat="45.75301" lon="-1.08286">
        <ele>2</ele>
        <time>2012-08-15T08:40:32Z</time>
      </trkpt>
      <trkpt lat="45.75317" lon="-1.08263">
        <ele>2</ele>
        <time>2012-08-15T08:40:38Z</time>
      </trkpt>
      <trkpt lat="45.75343" lon="-1.08271">
        <ele>1</ele>
        <time>2012-08-15T08:40:45Z</time>
      </trkpt>
      <trkpt lat="45.75364" lon="-1.08253">
        <ele>2</ele>
        <time>2012-08-15T08:40:52Z</time>
      </trkpt>
      <trkpt lat="45.75381" lon="-1.08228">
        <ele>3</ele>
        <time>2012-08-15T08:40:58Z</time>
      </trkpt>
      <trkpt lat="45.75399" lon="-1.08205">
        <ele>3</ele>
        <time>2012-08-15T08:41:04Z</time>
      </trkpt>
      <trkpt lat="45.75417" lon="-1.08179">
        <ele>2</ele>
        <time>2012-08-15T08:41:11Z</time>
      </trkpt>
      <trkpt lat="45.75433" lon="-1.08155">
        <ele>2</ele>
        <time>2012-08-15T08:41:17Z</time>
      </trkpt>
      <trkpt lat="45.75451" lon="-1.08127">
        <ele>3</ele>
        <time>2012-08-15T08:41:23Z</time>
      </trkpt>
      <trkpt lat="45.75471" lon="-1.08102">
        <ele>3</ele>
        <time>2012-08-15T08:41:29Z</time>
      </trkpt>
      <trkpt lat="45.75489" lon="-1.08079">
        <ele>4</ele>
        <time>2012-08-15T08:41:34Z</time>
      </trkpt>
      <trkpt lat="45.75508" lon="-1.08052">
        <ele>4</ele>
        <time>2012-08-15T08:41:40Z</time>
      </trkpt>
      <trkpt lat="45.75511" lon="-1.08019">
        <ele>3</ele>
        <time>2012-08-15T08:41:46Z</time>
      </trkpt>
      <trkpt lat="45.75492" lon="-1.07993">
        <ele>3</ele>
        <time>2012-08-15T08:41:52Z</time>
      </trkpt>
      <trkpt lat="45.75475" lon="-1.07967">
        <ele>4</ele>
        <time>2012-08-15T08:41:58Z</time>
      </trkpt>
      <trkpt lat="45.75458" lon="-1.07942">
        <ele>4</ele>
        <time>2012-08-15T08:42:04Z</time>
      </trkpt>
      <trkpt lat="45.75441" lon="-1.07917">
        <ele>4</ele>
        <time>2012-08-15T08:42:10Z</time>
      </trkpt>
      <trkpt lat="45.75425" lon="-1.07891">
        <ele>4</ele>
        <time>2012-08-15T08:42:16Z</time>
      </trkpt>
      <trkpt lat="45.75412" lon="-1.07864">
        <ele>4</ele>
        <time>2012-08-15T08:42:22Z</time>
      </trkpt>
      <trkpt lat="45.7543" lon="-1.07841">
        <ele>5</ele>
        <time>2012-08-15T08:42:28Z</time>
      </trkpt>
      <trkpt lat="45.7545" lon="-1.0782">
        <ele>5</ele>
        <time>2012-08-15T08:42:34Z</time>
      </trkpt>
      <trkpt lat="45.75468" lon="-1.07795">
        <ele>4</ele>
        <time>2012-08-15T08:42:40Z</time>
      </trkpt>
      <trkpt lat="45.75457" lon="-1.07765">
        <ele>4</ele>
        <time>2012-08-15T08:42:47Z</time>
      </trkpt>
      <trkpt lat="45.75439" lon="-1.07744">
        <ele>4</ele>
        <time>2012-08-15T08:42:52Z</time>
      </trkpt>
      <trkpt lat="45.75421" lon="-1.07718">
        <ele>4</ele>
        <time>2012-08-15T08:42:58Z</time>
      </trkpt>
      <trkpt lat="45.75437" lon="-1.07689">
        <ele>4</ele>
        <time>2012-08-15T08:43:06Z</time>
      </trkpt>
      <trkpt lat="45.75457" lon="-1.07668">
        <ele>5</ele>
        <time>2012-08-15T08:43:13Z</time>
      </trkpt>
      <trkpt lat="45.75474" lon="-1.07647">
        <ele>4</ele>
        <time>2012-08-15T08:43:20Z</time>
      </trkpt>
      <trkpt lat="45.75467" lon="-1.07613">
        <ele>3</ele>
        <time>2012-08-15T08:43:29Z</time>
      </trkpt>
      <trkpt lat="45.75451" lon="-1.07587">
        <ele>2</ele>
        <time>2012-08-15T08:43:36Z</time>
      </trkpt>
      <trkpt lat="45.75432" lon="-1.07567">
        <ele>3</ele>
        <time>2012-08-15T08:43:43Z</time>
      </trkpt>
      <trkpt lat="45.75407" lon="-1.07569">
        <ele>4</ele>
        <time>2012-08-15T08:43:50Z</time>
      </trkpt>
      <trkpt lat="45.75385" lon="-1.07581">
        <ele>5</ele>
        <time>2012-08-15T08:43:59Z</time>
      </trkpt>
      <trkpt lat="45.75362" lon="-1.07573">
        <ele>6</ele>
        <time>2012-08-15T08:44:47Z</time>
      </trkpt>
      <trkpt lat="45.75339" lon="-1.07567">
        <ele>7</ele>
        <time>2012-08-15T08:44:55Z</time>
      </trkpt>
      <trkpt lat="45.75316" lon="-1.07559">
        <ele>6</ele>
        <time>2012-08-15T08:45:02Z</time>
      </trkpt>
      <trkpt lat="45.75292" lon="-1.07548">
        <ele>6</ele>
        <time>2012-08-15T08:45:10Z</time>
      </trkpt>
      <trkpt lat="45.75272" lon="-1.07567">
        <ele>6</ele>
        <time>2012-08-15T08:45:19Z</time>
      </trkpt>
      <trkpt lat="45.75281" lon="-1.07599">
        <ele>8</ele>
        <time>2012-08-15T08:45:26Z</time>
      </trkpt>
      <trkpt lat="45.75284" lon="-1.07633">
        <ele>8</ele>
        <time>2012-08-15T08:45:33Z</time>
      </trkpt>
      <trkpt lat="45.75285" lon="-1.07667">
        <ele>9</ele>
        <time>2012-08-15T08:45:41Z</time>
      </trkpt>
      <trkpt lat="45.75302" lon="-1.07692">
        <ele>9</ele>
        <time>2012-08-15T08:45:49Z</time>
      </trkpt>
      <trkpt lat="45.75317" lon="-1.07716">
        <ele>10</ele>
        <time>2012-08-15T08:45:56Z</time>
      </trkpt>
      <trkpt lat="45.75333" lon="-1.07742">
        <ele>10</ele>
        <time>2012-08-15T08:46:03Z</time>
      </trkpt>
      <trkpt lat="45.7535" lon="-1.07768">
        <ele>10</ele>
        <time>2012-08-15T08:46:10Z</time>
      </trkpt>
      <trkpt lat="45.75367" lon="-1.07796">
        <ele>11</ele>
        <time>2012-08-15T08:46:17Z</time>
      </trkpt>
      <trkpt lat="45.75382" lon="-1.07824">
        <ele>10</ele>
        <time>2012-08-15T08:46:24Z</time>
      </trkpt>
      <trkpt lat="45.75398" lon="-1.07849">
        <ele>10</ele>
        <time>2012-08-15T08:46:31Z</time>
      </trkpt>
      <trkpt lat="45.75396" lon="-1.07882">
        <ele>11</ele>
        <time>2012-08-15T08:46:39Z</time>
      </trkpt>
      <trkpt lat="45.75375" lon="-1.07904">
        <ele>10</ele>
        <time>2012-08-15T08:46:46Z</time>
      </trkpt>
      <trkpt lat="45.75359" lon="-1.07927">
        <ele>9</ele>
        <time>2012-08-15T08:46:52Z</time>
      </trkpt>
      <trkpt lat="45.75343" lon="-1.0795">
        <ele>9</ele>
        <time>2012-08-15T08:46:58Z</time>
      </trkpt>
      <trkpt lat="45.75328" lon="-1.07977">
        <ele>8</ele>
        <time>2012-08-15T08:47:04Z</time>
      </trkpt>
      <trkpt lat="45.75312" lon="-1.08003">
        <ele>8</ele>
        <time>2012-08-15T08:47:11Z</time>
      </trkpt>
      <trkpt lat="45.75296" lon="-1.08029">
        <ele>9</ele>
        <time>2012-08-15T08:47:18Z</time>
      </trkpt>
      <trkpt lat="45.75279" lon="-1.08053">
        <ele>10</ele>
        <time>2012-08-15T08:47:25Z</time>
      </trkpt>
      <trkpt lat="45.7526" lon="-1.08072">
        <ele>10</ele>
        <time>2012-08-15T08:47:32Z</time>
      </trkpt>
      <trkpt lat="45.75241" lon="-1.08093">
        <ele>10</ele>
        <time>2012-08-15T08:47:39Z</time>
      </trkpt>
      <trkpt lat="45.75222" lon="-1.08112">
        <ele>11</ele>
        <time>2012-08-15T08:47:46Z</time>
      </trkpt>
      <trkpt lat="45.75206" lon="-1.08136">
        <ele>11</ele>
        <time>2012-08-15T08:47:54Z</time>
      </trkpt>
      <trkpt lat="45.75217" lon="-1.08163">
        <ele>11</ele>
        <time>2012-08-15T08:48:02Z</time>
      </trkpt>
      <trkpt lat="45.75234" lon="-1.08188">
        <ele>12</ele>
        <time>2012-08-15T08:48:09Z</time>
      </trkpt>
      <trkpt lat="45.75248" lon="-1.08215">
        <ele>11</ele>
        <time>2012-08-15T08:48:16Z</time>
      </trkpt>
      <trkpt lat="45.75233" lon="-1.0824">
        <ele>11</ele>
        <time>2012-08-15T08:48:24Z</time>
      </trkpt>
      <trkpt lat="45.7521" lon="-1.08233">
        <ele>10</ele>
        <time>2012-08-15T08:48:33Z</time>
      </trkpt>
      <trkpt lat="45.75185" lon="-1.08246">
        <ele>9</ele>
        <time>2012-08-15T08:48:40Z</time>
      </trkpt>
      <trkpt lat="45.75166" lon="-1.08269">
        <ele>11</ele>
        <time>2012-08-15T08:48:47Z</time>
      </trkpt>
      <trkpt lat="45.7515" lon="-1.08297">
        <ele>11</ele>
        <time>2012-08-15T08:48:55Z</time>
      </trkpt>
      <trkpt lat="45.75134" lon="-1.0832">
        <ele>11</ele>
        <time>2012-08-15T08:49:02Z</time>
      </trkpt>
      <trkpt lat="45.75117" lon="-1.08343">
        <ele>13</ele>
        <time>2012-08-15T08:49:09Z</time>
      </trkpt>
      <trkpt lat="45.751" lon="-1.08369">
        <ele>14</ele>
        <time>2012-08-15T08:49:18Z</time>
      </trkpt>
      <trkpt lat="45.75097" lon="-1.08401">
        <ele>13</ele>
        <time>2012-08-15T08:49:27Z</time>
      </trkpt>
      <trkpt lat="45.75101" lon="-1.08435">
        <ele>12</ele>
        <time>2012-08-15T08:49:36Z</time>
      </trkpt>
      <trkpt lat="45.75084" lon="-1.08459">
        <ele>12</ele>
        <time>2012-08-15T08:49:49Z</time>
      </trkpt>
      <trkpt lat="45.7506" lon="-1.08467">
        <ele>11</ele>
        <time>2012-08-15T08:49:59Z</time>
      </trkpt>
      <trkpt lat="45.75035" lon="-1.08474">
        <ele>8</ele>
        <time>2012-08-15T08:50:08Z</time>
      </trkpt>
      <trkpt lat="45.75013" lon="-1.08486">
        <ele>10</ele>
        <time>2012-08-15T08:50:17Z</time>
      </trkpt>
      <trkpt lat="45.74989" lon="-1.08496">
        <ele>10</ele>
        <time>2012-08-15T08:50:26Z</time>
      </trkpt>
      <trkpt lat="45.74967" lon="-1.08503">
        <ele>11</ele>
        <time>2012-08-15T08:50:34Z</time>
      </trkpt>
      <trkpt lat="45.74942" lon="-1.0851">
        <ele>10</ele>
        <time>2012-08-15T08:50:44Z</time>
      </trkpt>
      <trkpt lat="45.7492" lon="-1.08516">
        <ele>11</ele>
        <time>2012-08-15T08:50:53Z</time>
      </trkpt>
      <trkpt lat="45.74895" lon="-1.08522">
        <ele>11</ele>
        <time>2012-08-15T08:51:02Z</time>
      </trkpt>
      <trkpt lat="45.74885" lon="-1.08555">
        <ele>10</ele>
        <time>2012-08-15T08:51:13Z</time>
      </trkpt>
      <trkpt lat="45.74863" lon="-1.08571">
        <ele>10</ele>
        <time>2012-08-15T08:51:22Z</time>
      </trkpt>
      <trkpt lat="45.74839" lon="-1.08579">
        <ele>10</ele>
        <time>2012-08-15T08:51:31Z</time>
      </trkpt>
      <trkpt lat="45.74816" lon="-1.08589">
        <ele>9</ele>
        <time>2012-08-15T08:51:40Z</time>
      </trkpt>
      <trkpt lat="45.74794" lon="-1.08602">
        <ele>12</ele>
        <time>2012-08-15T08:51:50Z</time>
      </trkpt>
      <trkpt lat="45.74771" lon="-1.08608">
        <ele>11</ele>
        <time>2012-08-15T08:52:00Z</time>
      </trkpt>
      <trkpt lat="45.74748" lon="-1.08615">
        <ele>13</ele>
        <time>2012-08-15T08:52:08Z</time>
      </trkpt>
      <trkpt lat="45.74726" lon="-1.08626">
        <ele>14</ele>
        <time>2012-08-15T08:52:16Z</time>
      </trkpt>
      <trkpt lat="45.74703" lon="-1.08636">
        <ele>15</ele>
        <time>2012-08-15T08:52:24Z</time>
      </trkpt>
      <trkpt lat="45.74678" lon="-1.08639">
        <ele>14</ele>
        <time>2012-08-15T08:52:33Z</time>
      </trkpt>
      <trkpt lat="45.74672" lon="-1.08671">
        <ele>13</ele>
        <time>2012-08-15T08:52:47Z</time>
      </trkpt>
      <trkpt lat="45.74679" lon="-1.08703">
        <ele>12</ele>
        <time>2012-08-15T08:52:56Z</time>
      </trkpt>
      <trkpt lat="45.74656" lon="-1.0871">
        <ele>2</ele>
        <time>2012-08-15T08:53:42Z</time>
      </trkpt>
      <trkpt lat="45.7465" lon="-1.08676">
        <ele>2</ele>
        <time>2012-08-15T08:53:49Z</time>
      </trkpt>
      <trkpt lat="45.74642" lon="-1.08644">
        <ele>1</ele>
        <time>2012-08-15T08:53:55Z</time>
      </trkpt>
      <trkpt lat="45.74634" lon="-1.08614">
        <ele>2</ele>
        <time>2012-08-15T08:54:00Z</time>
      </trkpt>
      <trkpt lat="45.74624" lon="-1.08584">
        <ele>2</ele>
        <time>2012-08-15T08:54:05Z</time>
      </trkpt>
      <trkpt lat="45.74613" lon="-1.08551">
        <ele>2</ele>
        <time>2012-08-15T08:54:10Z</time>
      </trkpt>
      <trkpt lat="45.74601" lon="-1.0852">
        <ele>3</ele>
        <time>2012-08-15T08:54:15Z</time>
      </trkpt>
      <trkpt lat="45.74591" lon="-1.08489">
        <ele>1</ele>
        <time>2012-08-15T08:54:20Z</time>
      </trkpt>
      <trkpt lat="45.74579" lon="-1.08459">
        <ele>2</ele>
        <time>2012-08-15T08:54:25Z</time>
      </trkpt>
      <trkpt lat="45.74567" lon="-1.08429">
        <ele>2</ele>
        <time>2012-08-15T08:54:30Z</time>
      </trkpt>
      <trkpt lat="45.74555" lon="-1.08399">
        <ele>2</ele>
        <time>2012-08-15T08:54:35Z</time>
      </trkpt>
      <trkpt lat="45.74555" lon="-1.08365">
        <ele>2</ele>
        <time>2012-08-15T08:54:42Z</time>
      </trkpt>
      <trkpt lat="45.74578" lon="-1.08355">
        <ele>1</ele>
        <time>2012-08-15T08:54:47Z</time>
      </trkpt>
      <trkpt lat="45.74601" lon="-1.08351">
        <ele>3</ele>
        <time>2012-08-15T08:54:52Z</time>
      </trkpt>
      <trkpt lat="45.74628" lon="-1.08345">
        <ele>1</ele>
        <time>2012-08-15T08:54:58Z</time>
      </trkpt>
      <trkpt lat="45.74651" lon="-1.0834">
        <ele>2</ele>
        <time>2012-08-15T08:55:03Z</time>
      </trkpt>
      <trkpt lat="45.74676" lon="-1.08341">
        <ele>1</ele>
        <time>2012-08-15T08:55:09Z</time>
      </trkpt>
      <trkpt lat="45.74701" lon="-1.08334">
        <ele>3</ele>
        <time>2012-08-15T08:55:16Z</time>
      </trkpt>
      <trkpt lat="45.74726" lon="-1.08328">
        <ele>2.9</ele>
        <time>2012-08-15T08:55:23Z</time>
      </trkpt>
      <trkpt lat="45.74749" lon="-1.08324">
        <ele>2.4</ele>
        <time>2012-08-15T08:55:30Z</time>
      </trkpt>
      <trkpt lat="45.74775" lon="-1.0832">
        <ele>2.5</ele>
        <time>2012-08-15T08:55:37Z</time>
      </trkpt>
      <trkpt lat="45.74799" lon="-1.08314">
        <ele>-1</ele>
        <time>2012-08-15T08:55:44Z</time>
      </trkpt>
      <trkpt lat="45.74823" lon="-1.08325">
        <ele>-1</ele>
        <time>2012-08-15T08:55:52Z</time>
      </trkpt>
      <trkpt lat="45.74845" lon="-1.08328">
        <ele>-1</ele>
        <time>2012-08-15T08:56:00Z</time>
      </trkpt>
      <trkpt lat="45.74869" lon="-1.08322">
        <ele>1</ele>
        <time>2012-08-15T08:56:08Z</time>
      </trkpt>
      <trkpt lat="45.74892" lon="-1.08315">
        <ele>-2</ele>
        <time>2012-08-15T08:56:17Z</time>
      </trkpt>
      <trkpt lat="45.74893" lon="-1.08279">
        <ele>3</ele>
        <time>2012-08-15T08:56:26Z</time>
      </trkpt>
      <trkpt lat="45.74887" lon="-1.08248">
        <ele>-1</ele>
        <time>2012-08-15T08:56:33Z</time>
      </trkpt>
      <trkpt lat="45.74888" lon="-1.08213">
        <ele>-2</ele>
        <time>2012-08-15T08:56:41Z</time>
      </trkpt>
      <trkpt lat="45.74909" lon="-1.08199">
        <ele>-2</ele>
        <time>2012-08-15T08:56:48Z</time>
      </trkpt>
      <trkpt lat="45.74931" lon="-1.08189">
        <ele>-2</ele>
        <time>2012-08-15T08:56:55Z</time>
      </trkpt>
      <trkpt lat="45.7495" lon="-1.0817">
        <ele>2.2</ele>
        <time>2012-08-15T08:57:00Z</time>
      </trkpt>
      <trkpt lat="45.74972" lon="-1.08157">
        <ele>1</ele>
        <time>2012-08-15T08:57:06Z</time>
      </trkpt>
      <trkpt lat="45.7499" lon="-1.08133">
        <ele>2</ele>
        <time>2012-08-15T08:57:14Z</time>
      </trkpt>
      <trkpt lat="45.75008" lon="-1.08111">
        <ele>3</ele>
        <time>2012-08-15T08:57:21Z</time>
      </trkpt>
      <trkpt lat="45.75027" lon="-1.08087">
        <ele>3</ele>
        <time>2012-08-15T08:57:28Z</time>
      </trkpt>
      <trkpt lat="45.75023" lon="-1.08053">
        <ele>2</ele>
        <time>2012-08-15T08:57:36Z</time>
      </trkpt>
      <trkpt lat="45.75003" lon="-1.08029">
        <ele>2</ele>
        <time>2012-08-15T08:57:42Z</time>
      </trkpt>
      <trkpt lat="45.74989" lon="-1.08002">
        <ele>2</ele>
        <time>2012-08-15T08:57:48Z</time>
      </trkpt>
      <trkpt lat="45.74974" lon="-1.07976">
        <ele>1</ele>
        <time>2012-08-15T08:57:55Z</time>
      </trkpt>
      <trkpt lat="45.74952" lon="-1.07991">
        <ele>1</ele>
        <time>2012-08-15T08:58:03Z</time>
      </trkpt>
      <trkpt lat="45.74936" lon="-1.08015">
        <ele>1</ele>
        <time>2012-08-15T08:58:12Z</time>
      </trkpt>
      <trkpt lat="45.74917" lon="-1.08033">
        <ele>2</ele>
        <time>2012-08-15T08:58:20Z</time>
      </trkpt>
      <trkpt lat="45.74894" lon="-1.08043">
        <ele>3</ele>
        <time>2012-08-15T08:58:28Z</time>
      </trkpt>
      <trkpt lat="45.7487" lon="-1.08053">
        <ele>3</ele>
        <time>2012-08-15T08:58:36Z</time>
      </trkpt>
      <trkpt lat="45.74848" lon="-1.08044">
        <ele>-1</ele>
        <time>2012-08-15T08:58:44Z</time>
      </trkpt>
      <trkpt lat="45.74824" lon="-1.0804">
        <ele>-2</ele>
        <time>2012-08-15T08:58:51Z</time>
      </trkpt>
      <trkpt lat="45.74814" lon="-1.08068">
        <ele>1</ele>
        <time>2012-08-15T08:58:57Z</time>
      </trkpt>
      <trkpt lat="45.748" lon="-1.08094">
        <ele>2</ele>
        <time>2012-08-15T08:59:04Z</time>
      </trkpt>
      <trkpt lat="45.7478" lon="-1.08113">
        <ele>3</ele>
        <time>2012-08-15T08:59:12Z</time>
      </trkpt>
      <trkpt lat="45.7477" lon="-1.08084">
        <ele>4</ele>
        <time>2012-08-15T08:59:27Z</time>
      </trkpt>
      <trkpt lat="45.74788" lon="-1.0806">
        <ele>5</ele>
        <time>2012-08-15T08:59:35Z</time>
      </trkpt>
      <trkpt lat="45.74793" lon="-1.08029">
        <ele>3</ele>
        <time>2012-08-15T08:59:42Z</time>
      </trkpt>
      <trkpt lat="45.74785" lon="-1.07998">
        <ele>4</ele>
        <time>2012-08-15T08:59:50Z</time>
      </trkpt>
      <trkpt lat="45.7476" lon="-1.07996">
        <ele>5</ele>
        <time>2012-08-15T08:59:59Z</time>
      </trkpt>
      <trkpt lat="45.74739" lon="-1.08011">
        <ele>4</ele>
        <time>2012-08-15T09:00:08Z</time>
      </trkpt>
      <trkpt lat="45.74718" lon="-1.08026">
        <ele>3</ele>
        <time>2012-08-15T09:00:16Z</time>
      </trkpt>
      <trkpt lat="45.74699" lon="-1.08045">
        <ele>5</ele>
        <time>2012-08-15T09:00:24Z</time>
      </trkpt>
      <trkpt lat="45.74677" lon="-1.08034">
        <ele>5</ele>
        <time>2012-08-15T09:00:34Z</time>
      </trkpt>
      <trkpt lat="45.74661" lon="-1.0801">
        <ele>5</ele>
        <time>2012-08-15T09:00:43Z</time>
      </trkpt>
      <trkpt lat="45.74645" lon="-1.07983">
        <ele>6</ele>
        <time>2012-08-15T09:00:52Z</time>
      </trkpt>
      <trkpt lat="45.74629" lon="-1.0796">
        <ele>6</ele>
        <time>2012-08-15T09:01:02Z</time>
      </trkpt>
      <trkpt lat="45.74608" lon="-1.0798">
        <ele>5</ele>
        <time>2012-08-15T09:01:09Z</time>
      </trkpt>
      <trkpt lat="45.74588" lon="-1.08002">
        <ele>6</ele>
        <time>2012-08-15T09:01:15Z</time>
      </trkpt>
      <trkpt lat="45.74568" lon="-1.08019">
        <ele>7</ele>
        <time>2012-08-15T09:01:22Z</time>
      </trkpt>
      <trkpt lat="45.74547" lon="-1.08038">
        <ele>8</ele>
        <time>2012-08-15T09:01:32Z</time>
      </trkpt>
      <trkpt lat="45.74524" lon="-1.08052">
        <ele>9</ele>
        <time>2012-08-15T09:01:41Z</time>
      </trkpt>
      <trkpt lat="45.74507" lon="-1.08074">
        <ele>10</ele>
        <time>2012-08-15T09:01:51Z</time>
      </trkpt>
      <trkpt lat="45.74491" lon="-1.08096">
        <ele>14</ele>
        <time>2012-08-15T09:02:01Z</time>
      </trkpt>
      <trkpt lat="45.7447" lon="-1.08113">
        <ele>14</ele>
        <time>2012-08-15T09:02:11Z</time>
      </trkpt>
      <trkpt lat="45.74467" lon="-1.08148">
        <ele>11</ele>
        <time>2012-08-15T09:02:28Z</time>
      </trkpt>
      <trkpt lat="45.7448" lon="-1.08178">
        <ele>10</ele>
        <time>2012-08-15T09:02:33Z</time>
      </trkpt>
      <trkpt lat="45.74494" lon="-1.08213">
        <ele>7</ele>
        <time>2012-08-15T09:02:38Z</time>
      </trkpt>
      <trkpt lat="45.74505" lon="-1.08243">
        <ele>6</ele>
        <time>2012-08-15T09:02:42Z</time>
      </trkpt>
      <trkpt lat="45.74516" lon="-1.08274">
        <ele>7</ele>
        <time>2012-08-15T09:02:47Z</time>
      </trkpt>
      <trkpt lat="45.74512" lon="-1.08307">
        <ele>7</ele>
        <time>2012-08-15T09:02:56Z</time>
      </trkpt>
      <trkpt lat="45.74492" lon="-1.0833">
        <ele>6</ele>
        <time>2012-08-15T09:03:04Z</time>
      </trkpt>
      <trkpt lat="45.74475" lon="-1.08354">
        <ele>7</ele>
        <time>2012-08-15T09:03:12Z</time>
      </trkpt>
      <trkpt lat="45.74458" lon="-1.08376">
        <ele>7</ele>
        <time>2012-08-15T09:03:19Z</time>
      </trkpt>
      <trkpt lat="45.74436" lon="-1.08388">
        <ele>7</ele>
        <time>2012-08-15T09:03:26Z</time>
      </trkpt>
      <trkpt lat="45.74415" lon="-1.08401">
        <ele>6</ele>
        <time>2012-08-15T09:03:33Z</time>
      </trkpt>
      <trkpt lat="45.74392" lon="-1.08409">
        <ele>6</ele>
        <time>2012-08-15T09:03:40Z</time>
      </trkpt>
      <trkpt lat="45.74369" lon="-1.08415">
        <ele>7</ele>
        <time>2012-08-15T09:03:47Z</time>
      </trkpt>
      <trkpt lat="45.74346" lon="-1.08422">
        <ele>8</ele>
        <time>2012-08-15T09:03:55Z</time>
      </trkpt>
      <trkpt lat="45.74323" lon="-1.08427">
        <ele>8</ele>
        <time>2012-08-15T09:04:03Z</time>
      </trkpt>
      <trkpt lat="45.74299" lon="-1.08434">
        <ele>7</ele>
        <time>2012-08-15T09:04:12Z</time>
      </trkpt>
      <trkpt lat="45.74274" lon="-1.08441">
        <ele>8</ele>
        <time>2012-08-15T09:04:21Z</time>
      </trkpt>
      <trkpt lat="45.74252" lon="-1.08447">
        <ele>6</ele>
        <time>2012-08-15T09:04:31Z</time>
      </trkpt>
      <trkpt lat="45.74261" lon="-1.0848">
        <ele>8</ele>
        <time>2012-08-15T09:04:45Z</time>
      </trkpt>
      <trkpt lat="45.74274" lon="-1.08507">
        <ele>10</ele>
        <time>2012-08-15T09:04:52Z</time>
      </trkpt>
      <trkpt lat="45.74288" lon="-1.08535">
        <ele>10</ele>
        <time>2012-08-15T09:04:59Z</time>
      </trkpt>
      <trkpt lat="45.74303" lon="-1.08564">
        <ele>9</ele>
        <time>2012-08-15T09:05:07Z</time>
      </trkpt>
      <trkpt lat="45.74317" lon="-1.08592">
        <ele>9</ele>
        <time>2012-08-15T09:05:14Z</time>
      </trkpt>
      <trkpt lat="45.74331" lon="-1.08622">
        <ele>9</ele>
        <time>2012-08-15T09:05:22Z</time>
      </trkpt>
      <trkpt lat="45.74344" lon="-1.08649">
        <ele>8</ele>
        <time>2012-08-15T09:05:30Z</time>
      </trkpt>
      <trkpt lat="45.74358" lon="-1.08677">
        <ele>8</ele>
        <time>2012-08-15T09:05:38Z</time>
      </trkpt>
      <trkpt lat="45.74371" lon="-1.08704">
        <ele>8</ele>
        <time>2012-08-15T09:05:46Z</time>
      </trkpt>
      <trkpt lat="45.74383" lon="-1.08732">
        <ele>8</ele>
        <time>2012-08-15T09:05:55Z</time>
      </trkpt>
      <trkpt lat="45.74364" lon="-1.08754">
        <ele>9</ele>
        <time>2012-08-15T09:06:03Z</time>
      </trkpt>
      <trkpt lat="45.74343" lon="-1.08771">
        <ele>10</ele>
        <time>2012-08-15T09:06:11Z</time>
      </trkpt>
      <trkpt lat="45.74323" lon="-1.08788">
        <ele>9</ele>
        <time>2012-08-15T09:06:22Z</time>
      </trkpt>
      <trkpt lat="45.74304" lon="-1.08806">
        <ele>7</ele>
        <time>2012-08-15T09:06:32Z</time>
      </trkpt>
      <trkpt lat="45.74284" lon="-1.08826">
        <ele>7</ele>
        <time>2012-08-15T09:06:43Z</time>
      </trkpt>
      <trkpt lat="45.74264" lon="-1.08842">
        <ele>9</ele>
        <time>2012-08-15T09:06:53Z</time>
      </trkpt>
      <trkpt lat="45.74247" lon="-1.08864">
        <ele>11</ele>
        <time>2012-08-15T09:07:05Z</time>
      </trkpt>
      <trkpt lat="45.74228" lon="-1.0888">
        <ele>9</ele>
        <time>2012-08-15T09:07:15Z</time>
      </trkpt>
      <trkpt lat="45.74209" lon="-1.089">
        <ele>8</ele>
        <time>2012-08-15T09:07:26Z</time>
      </trkpt>
      <trkpt lat="45.74188" lon="-1.08918">
        <ele>10</ele>
        <time>2012-08-15T09:07:36Z</time>
      </trkpt>
      <trkpt lat="45.74168" lon="-1.08937">
        <ele>12</ele>
        <time>2012-08-15T09:07:45Z</time>
      </trkpt>
      <trkpt lat="45.74148" lon="-1.08957">
        <ele>9</ele>
        <time>2012-08-15T09:07:54Z</time>
      </trkpt>
      <trkpt lat="45.74129" lon="-1.08977">
        <ele>8</ele>
        <time>2012-08-15T09:08:03Z</time>
      </trkpt>
      <trkpt lat="45.74109" lon="-1.08998">
        <ele>6</ele>
        <time>2012-08-15T09:08:12Z</time>
      </trkpt>
      <trkpt lat="45.74087" lon="-1.0901">
        <ele>3</ele>
        <time>2012-08-15T09:08:26Z</time>
      </trkpt>
      <trkpt lat="45.74071" lon="-1.08988">
        <ele>3</ele>
        <time>2012-08-15T09:08:35Z</time>
      </trkpt>
      <trkpt lat="45.74056" lon="-1.08961">
        <ele>1</ele>
        <time>2012-08-15T09:08:45Z</time>
      </trkpt>
      <trkpt lat="45.74041" lon="-1.08936">
        <ele>4</ele>
        <time>2012-08-15T09:08:55Z</time>
      </trkpt>
      <trkpt lat="45.74051" lon="-1.08907">
        <ele>8</ele>
        <time>2012-08-15T09:09:20Z</time>
      </trkpt>
      <trkpt lat="45.74027" lon="-1.08911">
        <ele>5</ele>
        <time>2012-08-15T09:17:58Z</time>
      </trkpt>
      <trkpt lat="45.74012" lon="-1.08884">
        <ele>3</ele>
        <time>2012-08-15T09:18:11Z</time>
      </trkpt>
      <trkpt lat="45.73993" lon="-1.08866">
        <ele>9.2</ele>
        <time>2012-08-15T09:18:18Z</time>
      </trkpt>
      <trkpt lat="45.73981" lon="-1.08834">
        <ele>9</ele>
        <time>2012-08-15T09:18:25Z</time>
      </trkpt>
      <trkpt lat="45.73961" lon="-1.08814">
        <ele>6</ele>
        <time>2012-08-15T09:18:32Z</time>
      </trkpt>
      <trkpt lat="45.73942" lon="-1.08789">
        <ele>5</ele>
        <time>2012-08-15T09:18:39Z</time>
      </trkpt>
      <trkpt lat="45.73926" lon="-1.08764">
        <ele>6</ele>
        <time>2012-08-15T09:18:46Z</time>
      </trkpt>
      <trkpt lat="45.7391" lon="-1.08739">
        <ele>5</ele>
        <time>2012-08-15T09:18:53Z</time>
      </trkpt>
      <trkpt lat="45.73896" lon="-1.08712">
        <ele>7</ele>
        <time>2012-08-15T09:19:01Z</time>
      </trkpt>
      <trkpt lat="45.73877" lon="-1.08688">
        <ele>6</ele>
        <time>2012-08-15T09:19:09Z</time>
      </trkpt>
      <trkpt lat="45.73859" lon="-1.08664">
        <ele>8</ele>
        <time>2012-08-15T09:19:17Z</time>
      </trkpt>
      <trkpt lat="45.73844" lon="-1.0864">
        <ele>7</ele>
        <time>2012-08-15T09:19:26Z</time>
      </trkpt>
      <trkpt lat="45.73827" lon="-1.08616">
        <ele>3</ele>
        <time>2012-08-15T09:19:35Z</time>
      </trkpt>
      <trkpt lat="45.73813" lon="-1.08591">
        <ele>5</ele>
        <time>2012-08-15T09:19:45Z</time>
      </trkpt>
      <trkpt lat="45.73828" lon="-1.08564">
        <ele>13</ele>
        <time>2012-08-15T09:19:56Z</time>
      </trkpt>
      <trkpt lat="45.73847" lon="-1.08542">
        <ele>14</ele>
        <time>2012-08-15T09:20:02Z</time>
      </trkpt>
      <trkpt lat="45.73867" lon="-1.08525">
        <ele>15</ele>
        <time>2012-08-15T09:20:07Z</time>
      </trkpt>
      <trkpt lat="45.7389" lon="-1.08505">
        <ele>16</ele>
        <time>2012-08-15T09:20:12Z</time>
      </trkpt>
      <trkpt lat="45.7391" lon="-1.08489">
        <ele>17</ele>
        <time>2012-08-15T09:20:16Z</time>
      </trkpt>
      <trkpt lat="45.73932" lon="-1.08471">
        <ele>17</ele>
        <time>2012-08-15T09:20:21Z</time>
      </trkpt>
      <trkpt lat="45.73948" lon="-1.08447">
        <ele>15</ele>
        <time>2012-08-15T09:20:25Z</time>
      </trkpt>
      <trkpt lat="45.7397" lon="-1.08428">
        <ele>15</ele>
        <time>2012-08-15T09:20:30Z</time>
      </trkpt>
      <trkpt lat="45.7399" lon="-1.08407">
        <ele>14</ele>
        <time>2012-08-15T09:20:34Z</time>
      </trkpt>
      <trkpt lat="45.7401" lon="-1.08386">
        <ele>15</ele>
        <time>2012-08-15T09:20:39Z</time>
      </trkpt>
      <trkpt lat="45.74035" lon="-1.08367">
        <ele>17</ele>
        <time>2012-08-15T09:20:43Z</time>
      </trkpt>
      <trkpt lat="45.74054" lon="-1.08345">
        <ele>18</ele>
        <time>2012-08-15T09:20:47Z</time>
      </trkpt>
      <trkpt lat="45.74073" lon="-1.08328">
        <ele>19</ele>
        <time>2012-08-15T09:20:51Z</time>
      </trkpt>
      <trkpt lat="45.74095" lon="-1.08315">
        <ele>21</ele>
        <time>2012-08-15T09:20:55Z</time>
      </trkpt>
      <trkpt lat="45.74114" lon="-1.08294">
        <ele>24</ele>
        <time>2012-08-15T09:20:59Z</time>
      </trkpt>
      <trkpt lat="45.74134" lon="-1.0827">
        <ele>19</ele>
        <time>2012-08-15T09:21:03Z</time>
      </trkpt>
      <trkpt lat="45.74144" lon="-1.0824">
        <ele>14</ele>
        <time>2012-08-15T09:21:08Z</time>
      </trkpt>
      <trkpt lat="45.74133" lon="-1.08205">
        <ele>12</ele>
        <time>2012-08-15T09:21:15Z</time>
      </trkpt>
      <trkpt lat="45.7412" lon="-1.08178">
        <ele>11</ele>
        <time>2012-08-15T09:21:20Z</time>
      </trkpt>
      <trkpt lat="45.74105" lon="-1.08153">
        <ele>10</ele>
        <time>2012-08-15T09:21:26Z</time>
      </trkpt>
      <trkpt lat="45.74091" lon="-1.08122">
        <ele>9</ele>
        <time>2012-08-15T09:21:33Z</time>
      </trkpt>
      <trkpt lat="45.74077" lon="-1.08092">
        <ele>8</ele>
        <time>2012-08-15T09:21:40Z</time>
      </trkpt>
      <trkpt lat="45.74062" lon="-1.08066">
        <ele>8</ele>
        <time>2012-08-15T09:21:47Z</time>
      </trkpt>
      <trkpt lat="45.74049" lon="-1.08039">
        <ele>8</ele>
        <time>2012-08-15T09:21:54Z</time>
      </trkpt>
      <trkpt lat="45.74039" lon="-1.0801">
        <ele>7</ele>
        <time>2012-08-15T09:22:08Z</time>
      </trkpt>
      <trkpt lat="45.74025" lon="-1.07985">
        <ele>8</ele>
        <time>2012-08-15T09:22:22Z</time>
      </trkpt>
      <trkpt lat="45.74012" lon="-1.07957">
        <ele>8</ele>
        <time>2012-08-15T09:22:36Z</time>
      </trkpt>
      <trkpt lat="45.73999" lon="-1.07931">
        <ele>9</ele>
        <time>2012-08-15T09:22:51Z</time>
      </trkpt>
      <trkpt lat="45.73985" lon="-1.07904">
        <ele>12</ele>
        <time>2012-08-15T09:23:06Z</time>
      </trkpt>
      <trkpt lat="45.73968" lon="-1.07882">
        <ele>12</ele>
        <time>2012-08-15T09:23:24Z</time>
      </trkpt>
      <trkpt lat="45.73946" lon="-1.07901">
        <ele>14</ele>
        <time>2012-08-15T09:23:32Z</time>
      </trkpt>
      <trkpt lat="45.73922" lon="-1.07918">
        <ele>14</ele>
        <time>2012-08-15T09:23:39Z</time>
      </trkpt>
      <trkpt lat="45.73901" lon="-1.07933">
        <ele>13</ele>
        <time>2012-08-15T09:23:46Z</time>
      </trkpt>
      <trkpt lat="45.7388" lon="-1.07951">
        <ele>12</ele>
        <time>2012-08-15T09:23:53Z</time>
      </trkpt>
      <trkpt lat="45.73859" lon="-1.0797">
        <ele>12</ele>
        <time>2012-08-15T09:24:00Z</time>
      </trkpt>
      <trkpt lat="45.73838" lon="-1.0799">
        <ele>13</ele>
        <time>2012-08-15T09:24:08Z</time>
      </trkpt>
      <trkpt lat="45.73816" lon="-1.08004">
        <ele>14</ele>
        <time>2012-08-15T09:24:17Z</time>
      </trkpt>
      <trkpt lat="45.73795" lon="-1.07992">
        <ele>13</ele>
        <time>2012-08-15T09:24:43Z</time>
      </trkpt>
      <trkpt lat="45.73781" lon="-1.07965">
        <ele>17</ele>
        <time>2012-08-15T09:24:53Z</time>
      </trkpt>
      <trkpt lat="45.73767" lon="-1.07936">
        <ele>19</ele>
        <time>2012-08-15T09:25:04Z</time>
      </trkpt>
      <trkpt lat="45.73752" lon="-1.07909">
        <ele>20</ele>
        <time>2012-08-15T09:25:14Z</time>
      </trkpt>
      <trkpt lat="45.73738" lon="-1.07882">
        <ele>19</ele>
        <time>2012-08-15T09:25:24Z</time>
      </trkpt>
      <trkpt lat="45.7372" lon="-1.07862">
        <ele>19</ele>
        <time>2012-08-15T09:25:35Z</time>
      </trkpt>
      <trkpt lat="45.73706" lon="-1.07835">
        <ele>16</ele>
        <time>2012-08-15T09:25:44Z</time>
      </trkpt>
      <trkpt lat="45.73692" lon="-1.07807">
        <ele>15</ele>
        <time>2012-08-15T09:25:51Z</time>
      </trkpt>
      <trkpt lat="45.73679" lon="-1.07775">
        <ele>17</ele>
        <time>2012-08-15T09:25:58Z</time>
      </trkpt>
      <trkpt lat="45.73666" lon="-1.07742">
        <ele>17</ele>
        <time>2012-08-15T09:26:04Z</time>
      </trkpt>
      <trkpt lat="45.7364" lon="-1.07742">
        <ele>14</ele>
        <time>2012-08-15T09:26:11Z</time>
      </trkpt>
      <trkpt lat="45.73622" lon="-1.07763">
        <ele>11</ele>
        <time>2012-08-15T09:26:17Z</time>
      </trkpt>
      <trkpt lat="45.73603" lon="-1.07786">
        <ele>12</ele>
        <time>2012-08-15T09:26:24Z</time>
      </trkpt>
      <trkpt lat="45.73586" lon="-1.0781">
        <ele>10</ele>
        <time>2012-08-15T09:26:31Z</time>
      </trkpt>
      <trkpt lat="45.73573" lon="-1.07784">
        <ele>10</ele>
        <time>2012-08-15T09:26:36Z</time>
      </trkpt>
      <trkpt lat="45.73559" lon="-1.07749">
        <ele>9</ele>
        <time>2012-08-15T09:26:41Z</time>
      </trkpt>
      <trkpt lat="45.73547" lon="-1.0772">
        <ele>8</ele>
        <time>2012-08-15T09:26:45Z</time>
      </trkpt>
      <trkpt lat="45.73532" lon="-1.07689">
        <ele>7</ele>
        <time>2012-08-15T09:26:49Z</time>
      </trkpt>
      <trkpt lat="45.73518" lon="-1.07657">
        <ele>7</ele>
        <time>2012-08-15T09:26:53Z</time>
      </trkpt>
      <trkpt lat="45.73506" lon="-1.07627">
        <ele>10</ele>
        <time>2012-08-15T09:26:57Z</time>
      </trkpt>
      <trkpt lat="45.73492" lon="-1.07598">
        <ele>10</ele>
        <time>2012-08-15T09:27:01Z</time>
      </trkpt>
      <trkpt lat="45.73479" lon="-1.07572">
        <ele>9</ele>
        <time>2012-08-15T09:27:05Z</time>
      </trkpt>
      <trkpt lat="45.73464" lon="-1.07547">
        <ele>10</ele>
        <time>2012-08-15T09:27:09Z</time>
      </trkpt>
      <trkpt lat="45.73451" lon="-1.0752">
        <ele>10</ele>
        <time>2012-08-15T09:27:13Z</time>
      </trkpt>
      <trkpt lat="45.73432" lon="-1.0749">
        <ele>8</ele>
        <time>2012-08-15T09:27:18Z</time>
      </trkpt>
      <trkpt lat="45.73417" lon="-1.07458">
        <ele>9</ele>
        <time>2012-08-15T09:27:23Z</time>
      </trkpt>
      <trkpt lat="45.73395" lon="-1.07476">
        <ele>7</ele>
        <time>2012-08-15T09:27:30Z</time>
      </trkpt>
      <trkpt lat="45.73377" lon="-1.07503">
        <ele>7</ele>
        <time>2012-08-15T09:27:36Z</time>
      </trkpt>
      <trkpt lat="45.73362" lon="-1.07529">
        <ele>7</ele>
        <time>2012-08-15T09:27:42Z</time>
      </trkpt>
      <trkpt lat="45.73346" lon="-1.07556">
        <ele>7</ele>
        <time>2012-08-15T09:27:49Z</time>
      </trkpt>
      <trkpt lat="45.73332" lon="-1.07582">
        <ele>6</ele>
        <time>2012-08-15T09:27:56Z</time>
      </trkpt>
      <trkpt lat="45.73318" lon="-1.07609">
        <ele>8</ele>
        <time>2012-08-15T09:28:04Z</time>
      </trkpt>
      <trkpt lat="45.73304" lon="-1.07636">
        <ele>12</ele>
        <time>2012-08-15T09:28:24Z</time>
      </trkpt>
      <trkpt lat="45.73296" lon="-1.07668">
        <ele>13</ele>
        <time>2012-08-15T09:28:41Z</time>
      </trkpt>
      <trkpt lat="45.73285" lon="-1.07696">
        <ele>12</ele>
        <time>2012-08-15T09:28:57Z</time>
      </trkpt>
      <trkpt lat="45.73276" lon="-1.07727">
        <ele>13</ele>
        <time>2012-08-15T09:29:12Z</time>
      </trkpt>
      <trkpt lat="45.73266" lon="-1.07758">
        <ele>16</ele>
        <time>2012-08-15T09:29:36Z</time>
      </trkpt>
      <trkpt lat="45.73259" lon="-1.0779">
        <ele>19</ele>
        <time>2012-08-15T09:29:54Z</time>
      </trkpt>
      <trkpt lat="45.73257" lon="-1.07823">
        <ele>17</ele>
        <time>2012-08-15T09:30:24Z</time>
      </trkpt>
      <trkpt lat="45.73258" lon="-1.07857">
        <ele>22</ele>
        <time>2012-08-15T09:30:38Z</time>
      </trkpt>
      <trkpt lat="45.73256" lon="-1.07891">
        <ele>28</ele>
        <time>2012-08-15T09:30:50Z</time>
      </trkpt>
      <trkpt lat="45.73257" lon="-1.07927">
        <ele>31</ele>
        <time>2012-08-15T09:30:59Z</time>
      </trkpt>
      <trkpt lat="45.73264" lon="-1.07959">
        <ele>31</ele>
        <time>2012-08-15T09:31:07Z</time>
      </trkpt>
      <trkpt lat="45.73276" lon="-1.07986">
        <ele>26</ele>
        <time>2012-08-15T09:31:15Z</time>
      </trkpt>
      <trkpt lat="45.73297" lon="-1.08006">
        <ele>23</ele>
        <time>2012-08-15T09:31:24Z</time>
      </trkpt>
      <trkpt lat="45.73315" lon="-1.08025">
        <ele>26</ele>
        <time>2012-08-15T09:31:32Z</time>
      </trkpt>
      <trkpt lat="45.73328" lon="-1.08052">
        <ele>25</ele>
        <time>2012-08-15T09:31:41Z</time>
      </trkpt>
      <trkpt lat="45.73306" lon="-1.08061">
        <ele>23</ele>
        <time>2012-08-15T09:31:50Z</time>
      </trkpt>
      <trkpt lat="45.73286" lon="-1.08079">
        <ele>23</ele>
        <time>2012-08-15T09:31:57Z</time>
      </trkpt>
      <trkpt lat="45.73265" lon="-1.08097">
        <ele>23</ele>
        <time>2012-08-15T09:32:04Z</time>
      </trkpt>
      <trkpt lat="45.73242" lon="-1.08088">
        <ele>21</ele>
        <time>2012-08-15T09:32:11Z</time>
      </trkpt>
      <trkpt lat="45.73219" lon="-1.08078">
        <ele>19</ele>
        <time>2012-08-15T09:32:19Z</time>
      </trkpt>
      <trkpt lat="45.73196" lon="-1.08065">
        <ele>24</ele>
        <time>2012-08-15T09:32:28Z</time>
      </trkpt>
      <trkpt lat="45.7318" lon="-1.08036">
        <ele>26</ele>
        <time>2012-08-15T09:32:34Z</time>
      </trkpt>
      <trkpt lat="45.73164" lon="-1.08004">
        <ele>26</ele>
        <time>2012-08-15T09:32:40Z</time>
      </trkpt>
      <trkpt lat="45.73152" lon="-1.07976">
        <ele>23</ele>
        <time>2012-08-15T09:32:45Z</time>
      </trkpt>
      <trkpt lat="45.73136" lon="-1.07946">
        <ele>24</ele>
        <time>2012-08-15T09:32:51Z</time>
      </trkpt>
      <trkpt lat="45.73121" lon="-1.07916">
        <ele>22</ele>
        <time>2012-08-15T09:32:57Z</time>
      </trkpt>
      <trkpt lat="45.73097" lon="-1.07908">
        <ele>22</ele>
        <time>2012-08-15T09:33:01Z</time>
      </trkpt>
      <trkpt lat="45.73076" lon="-1.07892">
        <ele>25</ele>
        <time>2012-08-15T09:33:07Z</time>
      </trkpt>
      <trkpt lat="45.73059" lon="-1.07869">
        <ele>25</ele>
        <time>2012-08-15T09:33:13Z</time>
      </trkpt>
      <trkpt lat="45.73041" lon="-1.07843">
        <ele>24</ele>
        <time>2012-08-15T09:33:20Z</time>
      </trkpt>
      <trkpt lat="45.73024" lon="-1.07819">
        <ele>22</ele>
        <time>2012-08-15T09:33:27Z</time>
      </trkpt>
      <trkpt lat="45.73006" lon="-1.07794">
        <ele>21</ele>
        <time>2012-08-15T09:33:34Z</time>
      </trkpt>
      <trkpt lat="45.72991" lon="-1.07769">
        <ele>23</ele>
        <time>2012-08-15T09:33:41Z</time>
      </trkpt>
      <trkpt lat="45.72976" lon="-1.07745">
        <ele>24</ele>
        <time>2012-08-15T09:33:48Z</time>
      </trkpt>
      <trkpt lat="45.7296" lon="-1.0772">
        <ele>24</ele>
        <time>2012-08-15T09:33:55Z</time>
      </trkpt>
      <trkpt lat="45.7294" lon="-1.077">
        <ele>23</ele>
        <time>2012-08-15T09:34:02Z</time>
      </trkpt>
      <trkpt lat="45.72919" lon="-1.07687">
        <ele>24</ele>
        <time>2012-08-15T09:34:09Z</time>
      </trkpt>
      <trkpt lat="45.72895" lon="-1.07674">
        <ele>27</ele>
        <time>2012-08-15T09:34:23Z</time>
      </trkpt>
      <trkpt lat="45.72875" lon="-1.07695">
        <ele>24</ele>
        <time>2012-08-15T09:34:30Z</time>
      </trkpt>
      <trkpt lat="45.72855" lon="-1.07711">
        <ele>23</ele>
        <time>2012-08-15T09:34:38Z</time>
      </trkpt>
      <trkpt lat="45.7283" lon="-1.07712">
        <ele>22</ele>
        <time>2012-08-15T09:35:35Z</time>
      </trkpt>
      <trkpt lat="45.72807" lon="-1.07706">
        <ele>22</ele>
        <time>2012-08-15T09:35:44Z</time>
      </trkpt>
      <trkpt lat="45.72785" lon="-1.0772">
        <ele>23</ele>
        <time>2012-08-15T09:35:53Z</time>
      </trkpt>
      <trkpt lat="45.72781" lon="-1.07758">
        <ele>23</ele>
        <time>2012-08-15T09:35:59Z</time>
      </trkpt>
      <trkpt lat="45.72775" lon="-1.07793">
        <ele>22</ele>
        <time>2012-08-15T09:36:05Z</time>
      </trkpt>
      <trkpt lat="45.72766" lon="-1.07827">
        <ele>21</ele>
        <time>2012-08-15T09:36:11Z</time>
      </trkpt>
      <trkpt lat="45.72755" lon="-1.07861">
        <ele>22</ele>
        <time>2012-08-15T09:36:17Z</time>
      </trkpt>
      <trkpt lat="45.7274" lon="-1.07892">
        <ele>28</ele>
        <time>2012-08-15T09:36:22Z</time>
      </trkpt>
      <trkpt lat="45.72735" lon="-1.07926">
        <ele>26</ele>
        <time>2012-08-15T09:36:26Z</time>
      </trkpt>
      <trkpt lat="45.7273" lon="-1.07961">
        <ele>22</ele>
        <time>2012-08-15T09:36:30Z</time>
      </trkpt>
      <trkpt lat="45.72728" lon="-1.08">
        <ele>23</ele>
        <time>2012-08-15T09:36:34Z</time>
      </trkpt>
      <trkpt lat="45.72735" lon="-1.08041">
        <ele>23</ele>
        <time>2012-08-15T09:36:38Z</time>
      </trkpt>
      <trkpt lat="45.72745" lon="-1.08073">
        <ele>23</ele>
        <time>2012-08-15T09:36:42Z</time>
      </trkpt>
      <trkpt lat="45.72761" lon="-1.08104">
        <ele>25</ele>
        <time>2012-08-15T09:36:47Z</time>
      </trkpt>
      <trkpt lat="45.7278" lon="-1.08126">
        <ele>25</ele>
        <time>2012-08-15T09:36:53Z</time>
      </trkpt>
      <trkpt lat="45.728" lon="-1.08147">
        <ele>23</ele>
        <time>2012-08-15T09:37:00Z</time>
      </trkpt>
      <trkpt lat="45.72818" lon="-1.0817">
        <ele>28</ele>
        <time>2012-08-15T09:37:09Z</time>
      </trkpt>
      <trkpt lat="45.72835" lon="-1.08193">
        <ele>27</ele>
        <time>2012-08-15T09:37:18Z</time>
      </trkpt>
      <trkpt lat="45.72854" lon="-1.08216">
        <ele>28</ele>
        <time>2012-08-15T09:37:46Z</time>
      </trkpt>
      <trkpt lat="45.72867" lon="-1.08246">
        <ele>28</ele>
        <time>2012-08-15T09:37:53Z</time>
      </trkpt>
      <trkpt lat="45.72878" lon="-1.08274">
        <ele>29</ele>
        <time>2012-08-15T09:38:00Z</time>
      </trkpt>
      <trkpt lat="45.72885" lon="-1.08305">
        <ele>30</ele>
        <time>2012-08-15T09:38:08Z</time>
      </trkpt>
      <trkpt lat="45.72891" lon="-1.08339">
        <ele>30</ele>
        <time>2012-08-15T09:38:16Z</time>
      </trkpt>
      <trkpt lat="45.72895" lon="-1.08374">
        <ele>33</ele>
        <time>2012-08-15T09:38:24Z</time>
      </trkpt>
      <trkpt lat="45.72905" lon="-1.08404">
        <ele>32</ele>
        <time>2012-08-15T09:38:32Z</time>
      </trkpt>
      <trkpt lat="45.72911" lon="-1.08437">
        <ele>36</ele>
        <time>2012-08-15T09:38:44Z</time>
      </trkpt>
      <trkpt lat="45.72922" lon="-1.08469">
        <ele>40</ele>
        <time>2012-08-15T09:38:53Z</time>
      </trkpt>
      <trkpt lat="45.72927" lon="-1.08504">
        <ele>46</ele>
        <time>2012-08-15T09:39:01Z</time>
      </trkpt>
      <trkpt lat="45.72938" lon="-1.08537">
        <ele>47</ele>
        <time>2012-08-15T09:39:08Z</time>
      </trkpt>
      <trkpt lat="45.72951" lon="-1.08569">
        <ele>42</ele>
        <time>2012-08-15T09:39:14Z</time>
      </trkpt>
      <trkpt lat="45.72968" lon="-1.08601">
        <ele>43</ele>
        <time>2012-08-15T09:39:19Z</time>
      </trkpt>
      <trkpt lat="45.72979" lon="-1.08629">
        <ele>45</ele>
        <time>2012-08-15T09:39:24Z</time>
      </trkpt>
      <trkpt lat="45.72991" lon="-1.08662">
        <ele>45</ele>
        <time>2012-08-15T09:39:29Z</time>
      </trkpt>
      <trkpt lat="45.73005" lon="-1.08687">
        <ele>42</ele>
        <time>2012-08-15T09:39:33Z</time>
      </trkpt>
      <trkpt lat="45.7302" lon="-1.08713">
        <ele>33</ele>
        <time>2012-08-15T09:39:36Z</time>
      </trkpt>
      <trkpt lat="45.73033" lon="-1.08741">
        <ele>30</ele>
        <time>2012-08-15T09:39:42Z</time>
      </trkpt>
      <trkpt lat="45.73016" lon="-1.08763">
        <ele>27</ele>
        <time>2012-08-15T09:39:47Z</time>
      </trkpt>
      <trkpt lat="45.72989" lon="-1.08778">
        <ele>25</ele>
        <time>2012-08-15T09:39:52Z</time>
      </trkpt>
      <trkpt lat="45.72969" lon="-1.08797">
        <ele>20</ele>
        <time>2012-08-15T09:39:56Z</time>
      </trkpt>
      <trkpt lat="45.72948" lon="-1.08814">
        <ele>21</ele>
        <time>2012-08-15T09:40:00Z</time>
      </trkpt>
      <trkpt lat="45.72926" lon="-1.08831">
        <ele>22</ele>
        <time>2012-08-15T09:40:04Z</time>
      </trkpt>
      <trkpt lat="45.72905" lon="-1.08851">
        <ele>16</ele>
        <time>2012-08-15T09:40:09Z</time>
      </trkpt>
      <trkpt lat="45.72885" lon="-1.08869">
        <ele>15</ele>
        <time>2012-08-15T09:40:13Z</time>
      </trkpt>
      <trkpt lat="45.72866" lon="-1.08885">
        <ele>16</ele>
        <time>2012-08-15T09:40:17Z</time>
      </trkpt>
      <trkpt lat="45.72843" lon="-1.08906">
        <ele>16</ele>
        <time>2012-08-15T09:40:22Z</time>
      </trkpt>
      <trkpt lat="45.72824" lon="-1.08924">
        <ele>16</ele>
        <time>2012-08-15T09:40:26Z</time>
      </trkpt>
      <trkpt lat="45.72801" lon="-1.08946">
        <ele>16</ele>
        <time>2012-08-15T09:40:31Z</time>
      </trkpt>
      <trkpt lat="45.72783" lon="-1.08969">
        <ele>16</ele>
        <time>2012-08-15T09:40:35Z</time>
      </trkpt>
      <trkpt lat="45.72762" lon="-1.08992">
        <ele>15</ele>
        <time>2012-08-15T09:40:40Z</time>
      </trkpt>
      <trkpt lat="45.72751" lon="-1.09021">
        <ele>14</ele>
        <time>2012-08-15T09:40:46Z</time>
      </trkpt>
      <trkpt lat="45.72738" lon="-1.09049">
        <ele>17</ele>
        <time>2012-08-15T09:41:07Z</time>
      </trkpt>
      <trkpt lat="45.7273" lon="-1.09084">
        <ele>11</ele>
        <time>2012-08-15T09:41:14Z</time>
      </trkpt>
      <trkpt lat="45.7272" lon="-1.09117">
        <ele>12</ele>
        <time>2012-08-15T09:41:20Z</time>
      </trkpt>
      <trkpt lat="45.72706" lon="-1.09145">
        <ele>12</ele>
        <time>2012-08-15T09:41:26Z</time>
      </trkpt>
      <trkpt lat="45.72693" lon="-1.09174">
        <ele>12</ele>
        <time>2012-08-15T09:41:32Z</time>
      </trkpt>
      <trkpt lat="45.72685" lon="-1.09204">
        <ele>13</ele>
        <time>2012-08-15T09:41:38Z</time>
      </trkpt>
      <trkpt lat="45.7268" lon="-1.09239">
        <ele>15</ele>
        <time>2012-08-15T09:41:45Z</time>
      </trkpt>
      <trkpt lat="45.72675" lon="-1.09273">
        <ele>22</ele>
        <time>2012-08-15T09:41:52Z</time>
      </trkpt>
      <trkpt lat="45.72665" lon="-1.09306">
        <ele>28</ele>
        <time>2012-08-15T09:41:58Z</time>
      </trkpt>
      <trkpt lat="45.72659" lon="-1.09338">
        <ele>24</ele>
        <time>2012-08-15T09:42:05Z</time>
      </trkpt>
      <trkpt lat="45.72654" lon="-1.09369">
        <ele>24</ele>
        <time>2012-08-15T09:42:12Z</time>
      </trkpt>
      <trkpt lat="45.72675" lon="-1.09385">
        <ele>21</ele>
        <time>2012-08-15T09:42:38Z</time>
      </trkpt>
      <trkpt lat="45.72675" lon="-1.09418">
        <ele>24</ele>
        <time>2012-08-15T09:43:08Z</time>
      </trkpt>
      <trkpt lat="45.72682" lon="-1.0945">
        <ele>27</ele>
        <time>2012-08-15T09:43:18Z</time>
      </trkpt>
      <trkpt lat="45.72705" lon="-1.0946">
        <ele>27</ele>
        <time>2012-08-15T09:43:26Z</time>
      </trkpt>
      <trkpt lat="45.72726" lon="-1.09474">
        <ele>27</ele>
        <time>2012-08-15T09:43:36Z</time>
      </trkpt>
      <trkpt lat="45.72735" lon="-1.09506">
        <ele>32</ele>
        <time>2012-08-15T09:43:45Z</time>
      </trkpt>
      <trkpt lat="45.72731" lon="-1.09539">
        <ele>29</ele>
        <time>2012-08-15T09:43:56Z</time>
      </trkpt>
      <trkpt lat="45.72736" lon="-1.09571">
        <ele>42</ele>
        <time>2012-08-15T09:44:29Z</time>
      </trkpt>
      <trkpt lat="45.72713" lon="-1.09578">
        <ele>25</ele>
        <time>2012-08-15T09:45:03Z</time>
      </trkpt>
      <trkpt lat="45.72693" lon="-1.09597">
        <ele>21</ele>
        <time>2012-08-15T09:45:15Z</time>
      </trkpt>
      <trkpt lat="45.72708" lon="-1.09622">
        <ele>18</ele>
        <time>2012-08-15T09:45:24Z</time>
      </trkpt>
      <trkpt lat="45.72728" lon="-1.09641">
        <ele>17</ele>
        <time>2012-08-15T09:45:32Z</time>
      </trkpt>
      <trkpt lat="45.72713" lon="-1.09666">
        <ele>18</ele>
        <time>2012-08-15T09:45:53Z</time>
      </trkpt>
      <trkpt lat="45.72696" lon="-1.09689">
        <ele>25</ele>
        <time>2012-08-15T09:46:09Z</time>
      </trkpt>
    </trkseg>
  </trk>
</gpx>